Warning: Javascript must be enabled to use all the features on this page!


Page Loading - Please Wait...

Click to hideNews Bulletins
Click to hide state-specific text


* IMPORTANT: Next Generation Station Page

USGS 09070000 EAGLE RIVER BELOW GYPSUM, CO.

PROVISIONAL DATA SUBJECT TO REVISION

Click to hidestation-specific text
Click for larger image

The precipitation gage at this site is operated seasonally, April through September only.

Station operated by the U.S. Geological Survey, Colorado Water Science Center, as part of the USGS National Streamflow Information Program (NSIP).

Current shift adjusted rating table.
What is a shift adjusted stage-discharge rating table?

Boating safety tips

This station managed by the Grand Junction Field Office.

Available Parameters Available Period
  
2019-04-23  2020-05-26
1985-12-11  2020-05-26
2020-01-27  2020-05-26







 (15)
 

  -- or --

 


 

Summary of all available data for this site
Instantaneous-data availability statement






Date / Time




Dis-
charge,
ft3/s,




Gage
height,
feet,



Precip-
itation
total,
inches,
04/15/2020 00:00 MDT205P  4.31P  0.00P  
04/15/2020 00:15 MDT205P  4.31P  0.00P  
04/15/2020 00:30 MDT205P  4.31P  0.00P  
04/15/2020 00:45 MDT205P  4.31P  0.00P  
04/15/2020 01:00 MDT205P  4.31P  0.00P  
04/15/2020 01:15 MDT205P  4.31P  0.00P  
04/15/2020 01:30 MDT205P  4.31P  0.00P  
04/15/2020 01:45 MDT205P  4.31P  0.00P  
04/15/2020 02:00 MDT205P  4.31P  0.00P  
04/15/2020 02:15 MDT210P  4.32P  0.00P  
04/15/2020 02:30 MDT210P  4.32P  0.00P  
04/15/2020 02:45 MDT214P  4.33P  0.00P  
04/15/2020 03:00 MDT210P  4.32P  0.00P  
04/15/2020 03:15 MDT218P  4.34P  0.00P  
04/15/2020 03:30 MDT218P  4.34P  0.00P  
04/15/2020 03:45 MDT218P  4.34P  0.00P  
04/15/2020 04:00 MDT218P  4.34P  0.00P  
04/15/2020 04:15 MDT223P  4.35P  0.00P  
04/15/2020 04:30 MDT223P  4.35P  0.00P  
04/15/2020 04:45 MDT227P  4.36P  0.00P  
04/15/2020 05:00 MDT236P  4.38P  0.00P  
04/15/2020 05:15 MDT236P  4.38P  0.00P  
04/15/2020 05:30 MDT246P  4.40P  0.00P  
04/15/2020 05:45 MDT250P  4.41P  0.00P  
04/15/2020 06:00 MDT255P  4.42P  0.00P  
04/15/2020 06:15 MDT260P  4.43P  0.00P  
04/15/2020 06:30 MDT265P  4.44P  0.00P  
04/15/2020 06:45 MDT265P  4.44P  0.00P  
04/15/2020 07:00 MDT265P  4.44P  0.00P  
04/15/2020 07:15 MDT265P  4.44P  0.00P  
04/15/2020 07:30 MDT265P  4.44P  0.00P  
04/15/2020 07:45 MDT269P  4.45P  0.00P  
04/15/2020 08:00 MDT265P  4.44P  0.00P  
04/15/2020 08:15 MDT265P  4.44P  0.00P  
04/15/2020 08:30 MDT269P  4.45P  0.00P  
04/15/2020 08:45 MDT260P  4.43P  0.00P  
04/15/2020 09:00 MDT265P  4.44P  0.00P  
04/15/2020 09:15 MDT265P  4.44P  0.00P  
04/15/2020 09:30 MDT269P  4.45P  0.00P  
04/15/2020 09:45 MDT260P  4.43P  0.00P  
04/15/2020 10:00 MDT260P  4.43P  0.00P  
04/15/2020 10:15 MDT255P  4.42P  0.00P  
04/15/2020 10:30 MDT260P  4.43P  0.00P  
04/15/2020 10:45 MDT260P  4.43P  0.00P  
04/15/2020 11:00 MDT260P  4.43P  0.00P  
04/15/2020 11:15 MDT255P  4.42P  0.00P  
04/15/2020 11:30 MDT255P  4.42P  0.00P  
04/15/2020 11:45 MDT255P  4.42P  0.00P  
04/15/2020 12:00 MDT255P  4.42P  0.00P  
04/15/2020 12:15 MDT255P  4.42P  0.00P  
04/15/2020 12:30 MDT246P  4.40P  0.00P  
04/15/2020 12:45 MDT241P  4.39P  0.00P  
04/15/2020 13:00 MDT241P  4.39P  0.00P  
04/15/2020 13:15 MDT241P  4.39P  0.00P  
04/15/2020 13:30 MDT236P  4.38P  0.00P  
04/15/2020 13:45 MDT241P  4.39P  0.00P  
04/15/2020 14:00 MDT241P  4.39P  0.00P  
04/15/2020 14:15 MDT236P  4.38P  0.00P  
04/15/2020 14:30 MDT236P  4.38P  0.00P  
04/15/2020 14:45 MDT241P  4.39P  0.00P  
04/15/2020 15:00 MDT236P  4.38P  0.00P  
04/15/2020 15:15 MDT236P  4.38P  0.00P  
04/15/2020 15:30 MDT236P  4.38P  0.00P  
04/15/2020 15:45 MDT236P  4.38P  0.00P  
04/15/2020 16:00 MDT236P  4.38P  0.00P  
04/15/2020 16:15 MDT236P  4.38P  0.00P  
04/15/2020 16:30 MDT236P  4.38P  0.00P  
04/15/2020 16:45 MDT236P  4.38P  0.00P  
04/15/2020 17:00 MDT232P  4.37P  0.00P  
04/15/2020 17:15 MDT232P  4.37P  0.00P  
04/15/2020 17:30 MDT232P  4.37P  0.00P  
04/15/2020 17:45 MDT227P  4.36P  0.00P  
04/15/2020 18:00 MDT227P  4.36P  0.00P  
04/15/2020 18:15 MDT232P  4.37P  0.00P  
04/15/2020 18:30 MDT227P  4.36P  0.00P  
04/15/2020 18:45 MDT227P  4.36P  0.00P  
04/15/2020 19:00 MDT232P  4.37P  0.00P  
04/15/2020 19:15 MDT227P  4.36P  0.00P  
04/15/2020 19:30 MDT227P  4.36P  0.00P  
04/15/2020 19:45 MDT227P  4.36P  0.00P  
04/15/2020 20:00 MDT223P  4.35P  0.00P  
04/15/2020 20:15 MDT223P  4.35P  0.00P  
04/15/2020 20:30 MDT227P  4.36P  0.00P  
04/15/2020 20:45 MDT223P  4.35P  0.00P  
04/15/2020 21:00 MDT218P  4.34P  0.00P  
04/15/2020 21:15 MDT214P  4.33P  0.00P  
04/15/2020 21:30 MDT218P  4.34P  0.00P  
04/15/2020 21:45 MDT218P  4.34P  0.00P  
04/15/2020 22:00 MDT214P  4.33P  0.00P  
04/15/2020 22:15 MDT214P  4.33P  0.00P  
04/15/2020 22:30 MDT214P  4.33P  0.00P  
04/15/2020 22:45 MDT214P  4.33P  0.00P  
04/15/2020 23:00 MDT210P  4.32P  0.00P  
04/15/2020 23:15 MDT210P  4.32P  0.00P  
04/15/2020 23:30 MDT210P  4.32P  0.00P  
04/15/2020 23:45 MDT210P  4.32P  0.00P  
04/16/2020 00:00 MDT205P  4.31P  0.00P  
04/16/2020 00:15 MDT210P  4.32P  0.00P  
04/16/2020 00:30 MDT205P  4.31P  0.00P  
04/16/2020 00:45 MDT210P  4.32P  0.00P  
04/16/2020 01:00 MDT205P  4.31P  0.00P  
04/16/2020 01:15 MDT205P  4.31P  0.00P  
04/16/2020 01:30 MDT205P  4.31P  0.00P  
04/16/2020 01:45 MDT205P  4.31P  0.00P  
04/16/2020 02:00 MDT201P  4.30P  0.00P  
04/16/2020 02:15 MDT205P  4.31P  0.00P  
04/16/2020 02:30 MDT205P  4.31P  0.00P  
04/16/2020 02:45 MDT210P  4.32P  0.00P  
04/16/2020 03:00 MDT205P  4.31P  0.01P  
04/16/2020 03:15 MDT210P  4.32P  0.00P  
04/16/2020 03:30 MDT210P  4.32P  0.00P  
04/16/2020 03:45 MDT210P  4.32P  0.00P  
04/16/2020 04:00 MDT210P  4.32P  0.00P  
04/16/2020 04:15 MDT210P  4.32P  0.00P  
04/16/2020 04:30 MDT214P  4.33P  0.00P  
04/16/2020 04:45 MDT218P  4.34P  0.02P  
04/16/2020 05:00 MDT223P  4.35P  0.03P  
04/16/2020 05:15 MDT227P  4.36P  0.00P  
04/16/2020 05:30 MDT232P  4.37P  0.01P  
04/16/2020 05:45 MDT236P  4.38P  0.02P  
04/16/2020 06:00 MDT236P  4.38P  0.00P  
04/16/2020 06:15 MDT236P  4.38P  0.01P  
04/16/2020 06:30 MDT241P  4.39P  0.00P  
04/16/2020 06:45 MDT241P  4.39P  0.00P  
04/16/2020 07:00 MDT241P  4.39P  0.00P  
04/16/2020 07:15 MDT241P  4.39P  0.00P  
04/16/2020 07:30 MDT246P  4.40P  0.00P  
04/16/2020 07:45 MDT241P  4.39P  0.00P  
04/16/2020 08:00 MDT241P  4.39P  0.00P  
04/16/2020 08:15 MDT241P  4.39P  0.00P  
04/16/2020 08:30 MDT241P  4.39P  0.00P  
04/16/2020 08:45 MDT236P  4.38P  0.00P  
04/16/2020 09:00 MDT241P  4.39P  0.00P  
04/16/2020 09:15 MDT241P  4.39P  0.00P  
04/16/2020 09:30 MDT246P  4.40P  0.00P  
04/16/2020 09:45 MDT246P  4.40P  0.00P  
04/16/2020 10:00 MDT246P  4.40P  0.01P  
04/16/2020 10:15 MDT250P  4.41P  0.00P  
04/16/2020 10:30 MDT246P  4.40P  0.00P  
04/16/2020 10:45 MDT246P  4.40P  0.00P  
04/16/2020 11:00 MDT246P  4.40P  0.01P  
04/16/2020 11:15 MDT250P  4.41P  0.01P  
04/16/2020 11:30 MDT246P  4.40P  0.00P  
04/16/2020 11:45 MDT246P  4.40P  0.00P  
04/16/2020 12:00 MDT246P  4.40P  0.00P  
04/16/2020 12:15 MDT241P  4.39P  0.00P  
04/16/2020 12:30 MDT246P  4.40P  0.02P  
04/16/2020 12:45 MDT246P  4.40P  0.00P  
04/16/2020 13:00 MDT246P  4.40P  0.00P  
04/16/2020 13:15 MDT246P  4.40P  0.00P  
04/16/2020 13:30 MDT246P  4.40P  0.00P  
04/16/2020 13:45 MDT246P  4.40P  0.00P  
04/16/2020 14:00 MDT241P  4.39P  0.00P  
04/16/2020 14:15 MDT246P  4.40P  0.00P  
04/16/2020 14:30 MDT241P  4.39P  0.00P  
04/16/2020 14:45 MDT241P  4.39P  0.00P  
04/16/2020 15:00 MDT241P  4.39P  0.00P  
04/16/2020 15:15 MDT246P  4.40P  0.00P  
04/16/2020 15:30 MDT246P  4.40P  0.00P  
04/16/2020 15:45 MDT246P  4.40P  0.00P  
04/16/2020 16:00 MDT241P  4.39P  0.00P  
04/16/2020 16:15 MDT241P  4.39P  0.00P  
04/16/2020 16:30 MDT241P  4.39P  0.00P  
04/16/2020 16:45 MDT236P  4.38P  0.00P  
04/16/2020 17:00 MDT236P  4.38P  0.00P  
04/16/2020 17:15 MDT236P  4.38P  0.00P  
04/16/2020 17:30 MDT241P  4.39P  0.00P  
04/16/2020 17:45 MDT236P  4.38P  0.00P  
04/16/2020 18:00 MDT236P  4.38P  0.00P  
04/16/2020 18:15 MDT236P  4.38P  0.00P  
04/16/2020 18:30 MDT236P  4.38P  0.00P  
04/16/2020 18:45 MDT236P  4.38P  0.00P  
04/16/2020 19:00 MDT236P  4.38P  0.00P  
04/16/2020 19:15 MDT236P  4.38P  0.00P  
04/16/2020 19:30 MDT236P  4.38P  0.00P  
04/16/2020 19:45 MDT236P  4.38P  0.00P  
04/16/2020 20:00 MDT241P  4.39P  0.00P  
04/16/2020 20:15 MDT236P  4.38P  0.00P  
04/16/2020 20:30 MDT236P  4.38P  0.00P  
04/16/2020 20:45 MDT236P  4.38P  0.00P  
04/16/2020 21:00 MDT236P  4.38P  0.00P  
04/16/2020 21:15 MDT236P  4.38P  0.00P  
04/16/2020 21:30 MDT236P  4.38P  0.00P  
04/16/2020 21:45 MDT241P  4.39P  0.00P  
04/16/2020 22:00 MDT241P  4.39P  0.00P  
04/16/2020 22:15 MDT241P  4.39P  0.00P  
04/16/2020 22:30 MDT241P  4.39P  0.00P  
04/16/2020 22:45 MDT236P  4.38P  0.00P  
04/16/2020 23:00 MDT236P  4.38P  0.00P  
04/16/2020 23:15 MDT232P  4.37P  0.00P  
04/16/2020 23:30 MDT232P  4.37P  0.00P  
04/16/2020 23:45 MDT232P  4.37P  0.00P  
04/17/2020 00:00 MDT232P  4.37P  0.00P  
04/17/2020 00:15 MDT236P  4.38P  0.00P  
04/17/2020 00:30 MDT236P  4.38P  0.00P  
04/17/2020 00:45 MDT232P  4.37P  0.00P  
04/17/2020 01:00 MDT232P  4.37P  0.00P  
04/17/2020 01:15 MDT232P  4.37P  0.00P  
04/17/2020 01:30 MDT232P  4.37P  0.00P  
04/17/2020 01:45 MDT236P  4.38P  0.00P  
04/17/2020 02:00 MDT232P  4.37P  0.00P  
04/17/2020 02:15 MDT232P  4.37P  0.00P  
04/17/2020 02:30 MDT232P  4.37P  0.00P  
04/17/2020 02:45 MDT236P  4.38P  0.00P  
04/17/2020 03:00 MDT232P  4.37P  0.00P  
04/17/2020 03:15 MDT232P  4.37P  0.00P  
04/17/2020 03:30 MDT232P  4.37P  0.00P  
04/17/2020 03:45 MDT232P  4.37P  0.00P  
04/17/2020 04:00 MDT236P  4.38P  0.00P  
04/17/2020 04:15 MDT232P  4.37P  0.00P  
04/17/2020 04:30 MDT227P  4.36P  0.00P  
04/17/2020 04:45 MDT232P  4.37P  0.00P  
04/17/2020 05:00 MDT232P  4.37P  0.00P  
04/17/2020 05:15 MDT232P  4.37P  0.00P  
04/17/2020 05:30 MDT236P  4.38P  0.00P  
04/17/2020 05:45 MDT227P  4.36P  0.00P  
04/17/2020 06:00 MDT232P  4.37P  0.00P  
04/17/2020 06:15 MDT232P  4.37P  0.00P  
04/17/2020 06:30 MDT232P  4.37P  0.00P  
04/17/2020 06:45 MDT232P  4.37P  0.00P  
04/17/2020 07:00 MDT232P  4.37P  0.00P  
04/17/2020 07:15 MDT232P  4.37P  0.00P  
04/17/2020 07:30 MDT227P  4.36P  0.00P  
04/17/2020 07:45 MDT227P  4.36P  0.00P  
04/17/2020 08:00 MDT223P  4.35P  0.00P  
04/17/2020 08:15 MDT223P  4.35P  0.00P  
04/17/2020 08:30 MDT223P  4.35P  0.00P  
04/17/2020 08:45 MDT223P  4.35P  0.00P  
04/17/2020 09:00 MDT223P  4.35P  0.00P  
04/17/2020 09:15 MDT223P  4.35P  0.00P  
04/17/2020 09:30 MDT223P  4.35P  0.00P  
04/17/2020 09:45 MDT218P  4.34P  0.00P  
04/17/2020 10:00 MDT223P  4.35P  0.00P  
04/17/2020 10:15 MDT218P  4.34P  0.00P  
04/17/2020 10:30 MDT218P  4.34P  0.00P  
04/17/2020 10:45 MDT218P  4.34P  0.00P  
04/17/2020 11:00 MDT218P  4.34P  0.00P  
04/17/2020 11:15 MDT218P  4.34P  0.00P  
04/17/2020 11:30 MDT218P  4.34P  0.00P  
04/17/2020 11:45 MDT218P  4.34P  0.00P  
04/17/2020 12:00 MDT218P  4.34P  0.00P  
04/17/2020 12:15 MDT214P  4.33P  0.00P  
04/17/2020 12:30 MDT218P  4.34P  0.00P  
04/17/2020 12:45 MDT218P  4.34P  0.00P  
04/17/2020 13:00 MDT214P  4.33P  0.00P  
04/17/2020 13:15 MDT218P  4.34P  0.00P  
04/17/2020 13:30 MDT218P  4.34P  0.00P  
04/17/2020 13:45 MDT218P  4.34P  0.00P  
04/17/2020 14:00 MDT214P  4.33P  0.00P  
04/17/2020 14:15 MDT214P  4.33P  0.00P  
04/17/2020 14:30 MDT218P  4.34P  0.00P  
04/17/2020 14:45 MDT214P  4.33P  0.00P  
04/17/2020 15:00 MDT214P  4.33P  0.00P  
04/17/2020 15:15 MDT214P  4.33P  0.00P  
04/17/2020 15:30 MDT214P  4.33P  0.00P  
04/17/2020 15:45 MDT218P  4.34P  0.00P  
04/17/2020 16:00 MDT218P  4.34P  0.00P  
04/17/2020 16:15 MDT214P  4.33P  0.00P  
04/17/2020 16:30 MDT218P  4.34P  0.00P  
04/17/2020 16:45 MDT214P  4.33P  0.00P  
04/17/2020 17:00 MDT218P  4.34P  0.00P  
04/17/2020 17:15 MDT214P  4.33P  0.00P  
04/17/2020 17:30 MDT214P  4.33P  0.00P  
04/17/2020 17:45 MDT210P  4.32P  0.00P  
04/17/2020 18:00 MDT214P  4.33P  0.00P  
04/17/2020 18:15 MDT214P  4.33P  0.00P  
04/17/2020 18:30 MDT210P  4.32P  0.00P  
04/17/2020 18:45 MDT218P  4.34P  0.00P  
04/17/2020 19:00 MDT214P  4.33P  0.00P  
04/17/2020 19:15 MDT214P  4.33P  0.00P  
04/17/2020 19:30 MDT214P  4.33P  0.00P  
04/17/2020 19:45 MDT210P  4.32P  0.00P  
04/17/2020 20:00 MDT210P  4.32P  0.00P  
04/17/2020 20:15 MDT205P  4.31P  0.00P  
04/17/2020 20:30 MDT210P  4.32P  0.00P  
04/17/2020 20:45 MDT210P  4.32P  0.00P  
04/17/2020 21:00 MDT210P  4.32P  0.00P  
04/17/2020 21:15 MDT210P  4.32P  0.00P  
04/17/2020 21:30 MDT205P  4.31P  0.00P  
04/17/2020 21:45 MDT210P  4.32P  0.00P  
04/17/2020 22:00 MDT210P  4.32P  0.00P  
04/17/2020 22:15 MDT205P  4.31P  0.00P  
04/17/2020 22:30 MDT205P  4.31P  0.00P  
04/17/2020 22:45 MDT205P  4.31P  0.00P  
04/17/2020 23:00 MDT201P  4.30P  0.00P  
04/17/2020 23:15 MDT205P  4.31P  0.00P  
04/17/2020 23:30 MDT205P  4.31P  0.00P  
04/17/2020 23:45 MDT205P  4.31P  0.00P  
04/18/2020 00:00 MDT201P  4.30P  0.00P  
04/18/2020 00:15 MDT201P  4.30P  0.00P  
04/18/2020 00:30 MDT205P  4.31P  0.00P  
04/18/2020 00:45 MDT205P  4.31P  0.00P  
04/18/2020 01:00 MDT201P  4.30P  0.00P  
04/18/2020 01:15 MDT205P  4.31P  0.00P  
04/18/2020 01:30 MDT205P  4.31P  0.00P  
04/18/2020 01:45 MDT210P  4.32P  0.00P  
04/18/2020 02:00 MDT201P  4.30P  0.00P  
04/18/2020 02:15 MDT205P  4.31P  0.00P  
04/18/2020 02:30 MDT205P  4.31P  0.00P  
04/18/2020 02:45 MDT205P  4.31P  0.00P  
04/18/2020 03:00 MDT210P  4.32P  0.00P  
04/18/2020 03:15 MDT210P  4.32P  0.00P  
04/18/2020 03:30 MDT210P  4.32P  0.00P  
04/18/2020 03:45 MDT210P  4.32P  0.00P  
04/18/2020 04:00 MDT210P  4.32P  0.00P  
04/18/2020 04:15 MDT210P  4.32P  0.00P  
04/18/2020 04:30 MDT210P  4.32P  0.00P  
04/18/2020 04:45 MDT210P  4.32P  0.00P  
04/18/2020 05:00 MDT210P  4.32P  0.00P  
04/18/2020 05:15 MDT210P  4.32P  0.00P  
04/18/2020 05:30 MDT214P  4.33P  0.00P  
04/18/2020 05:45 MDT214P  4.33P  0.00P  
04/18/2020 06:00 MDT218P  4.34P  0.00P  
04/18/2020 06:15 MDT214P  4.33P  0.00P  
04/18/2020 06:30 MDT218P  4.34P  0.00P  
04/18/2020 06:45 MDT218P  4.34P  0.00P  
04/18/2020 07:00 MDT218P  4.34P  0.00P  
04/18/2020 07:15 MDT218P  4.34P  0.00P  
04/18/2020 07:30 MDT218P  4.34P  0.00P  
04/18/2020 07:45 MDT218P  4.34P  0.00P  
04/18/2020 08:00 MDT218P  4.34P  0.00P  
04/18/2020 08:15 MDT218P  4.34P  0.00P  
04/18/2020 08:30 MDT218P  4.34P  0.00P  
04/18/2020 08:45 MDT218P  4.34P  0.00P  
04/18/2020 09:00 MDT218P  4.34P  0.00P  
04/18/2020 09:15 MDT214P  4.33P  0.00P  
04/18/2020 09:30 MDT214P  4.33P  0.00P  
04/18/2020 09:45 MDT214P  4.33P  0.00P  
04/18/2020 10:00 MDT214P  4.33P  0.00P  
04/18/2020 10:15 MDT218P  4.34P  0.00P  
04/18/2020 10:30 MDT214P  4.33P  0.00P  
04/18/2020 10:45 MDT218P  4.34P  0.00P  
04/18/2020 11:00 MDT218P  4.34P  0.00P  
04/18/2020 11:15 MDT218P  4.34P  0.00P  
04/18/2020 11:30 MDT218P  4.34P  0.00P  
04/18/2020 11:45 MDT218P  4.34P  0.00P  
04/18/2020 12:00 MDT223P  4.35P  0.00P  
04/18/2020 12:15 MDT223P  4.35P  0.00P  
04/18/2020 12:30 MDT223P  4.35P  0.00P  
04/18/2020 12:45 MDT223P  4.35P  0.00P  
04/18/2020 13:00 MDT218P  4.34P  0.00P  
04/18/2020 13:15 MDT218P  4.34P  0.00P  
04/18/2020 13:30 MDT223P  4.35P  0.00P  
04/18/2020 13:45 MDT223P  4.35P  0.00P  
04/18/2020 14:00 MDT223P  4.35P  0.00P  
04/18/2020 14:15 MDT227P  4.36P  0.00P  
04/18/2020 14:30 MDT223P  4.35P  0.00P  
04/18/2020 14:45 MDT223P  4.35P  0.00P  
04/18/2020 15:00 MDT223P  4.35P  0.00P  
04/18/2020 15:15 MDT223P  4.35P  0.00P  
04/18/2020 15:30 MDT223P  4.35P  0.00P  
04/18/2020 15:45 MDT223P  4.35P  0.00P  
04/18/2020 16:00 MDT218P  4.34P  0.00P  
04/18/2020 16:15 MDT218P  4.34P  0.00P  
04/18/2020 16:30 MDT223P  4.35P  0.00P  
04/18/2020 16:45 MDT218P  4.34P  0.00P  
04/18/2020 17:00 MDT218P  4.34P  0.00P  
04/18/2020 17:15 MDT223P  4.35P  0.00P  
04/18/2020 17:30 MDT218P  4.34P  0.00P  
04/18/2020 17:45 MDT218P  4.34P  0.00P  
04/18/2020 18:00 MDT218P  4.34P  0.00P  
04/18/2020 18:15 MDT218P  4.34P  0.00P  
04/18/2020 18:30 MDT223P  4.35P  0.00P  
04/18/2020 18:45 MDT218P  4.34P  0.00P  
04/18/2020 19:00 MDT218P  4.34P  0.00P  
04/18/2020 19:15 MDT218P  4.34P  0.00P  
04/18/2020 19:30 MDT218P  4.34P  0.00P  
04/18/2020 19:45 MDT214P  4.33P  0.00P  
04/18/2020 20:00 MDT214P  4.33P  0.00P  
04/18/2020 20:15 MDT214P  4.33P  0.00P  
04/18/2020 20:30 MDT214P  4.33P  0.00P  
04/18/2020 20:45 MDT214P  4.33P  0.00P  
04/18/2020 21:00 MDT214P  4.33P  0.00P  
04/18/2020 21:15 MDT210P  4.32P  0.00P  
04/18/2020 21:30 MDT210P  4.32P  0.00P  
04/18/2020 21:45 MDT210P  4.32P  0.00P  
04/18/2020 22:00 MDT210P  4.32P  0.00P  
04/18/2020 22:15 MDT210P  4.32P  0.00P  
04/18/2020 22:30 MDT210P  4.32P  0.00P  
04/18/2020 22:45 MDT210P  4.32P  0.00P  
04/18/2020 23:00 MDT210P  4.32P  0.01P  
04/18/2020 23:15 MDT210P  4.32P  0.00P  
04/18/2020 23:30 MDT210P  4.32P  0.01P  
04/18/2020 23:45 MDT210P  4.32P  0.01P  
04/19/2020 00:00 MDT210P  4.32P  0.00P  
04/19/2020 00:15 MDT205P  4.31P  0.00P  
04/19/2020 00:30 MDT205P  4.31P  0.00P  
04/19/2020 00:45 MDT210P  4.32P  0.00P  
04/19/2020 01:00 MDT210P  4.32P  0.00P  
04/19/2020 01:15 MDT210P  4.32P  0.00P  
04/19/2020 01:30 MDT205P  4.31P  0.00P  
04/19/2020 01:45 MDT210P  4.32P  0.00P  
04/19/2020 02:00 MDT205P  4.31P  0.00P  
04/19/2020 02:15 MDT210P  4.32P  0.00P  
04/19/2020 02:30 MDT210P  4.32P  0.00P  
04/19/2020 02:45 MDT205P  4.31P  0.00P  
04/19/2020 03:00 MDT205P  4.31P  0.00P  
04/19/2020 03:15 MDT201P  4.30P  0.00P  
04/19/2020 03:30 MDT205P  4.31P  0.00P  
04/19/2020 03:45 MDT205P  4.31P  0.00P  
04/19/2020 04:00 MDT205P  4.31P  0.00P  
04/19/2020 04:15 MDT205P  4.31P  0.00P  
04/19/2020 04:30 MDT205P  4.31P  0.00P  
04/19/2020 04:45 MDT205P  4.31P  0.00P  
04/19/2020 05:00 MDT205P  4.31P  0.00P  
04/19/2020 05:15 MDT205P  4.31P  0.00P  
04/19/2020 05:30 MDT205P  4.31P  0.00P  
04/19/2020 05:45 MDT205P  4.31P  0.00P  
04/19/2020 06:00 MDT210P  4.32P  0.00P  
04/19/2020 06:15 MDT210P  4.32P  0.00P  
04/19/2020 06:30 MDT210P  4.32P  0.00P  
04/19/2020 06:45 MDT205P  4.31P  0.00P  
04/19/2020 07:00 MDT210P  4.32P  0.00P  
04/19/2020 07:15 MDT210P  4.32P  0.00P  
04/19/2020 07:30 MDT205P  4.31P  0.00P  
04/19/2020 07:45 MDT210P  4.32P  0.00P  
04/19/2020 08:00 MDT210P  4.32P  0.00P  
04/19/2020 08:15 MDT210P  4.32P  0.00P  
04/19/2020 08:30 MDT210P  4.32P  0.00P  
04/19/2020 08:45 MDT210P  4.32P  0.00P  
04/19/2020 09:00 MDT210P  4.32P  0.00P  
04/19/2020 09:15 MDT210P  4.32P  0.00P  
04/19/2020 09:30 MDT210P  4.32P  0.00P  
04/19/2020 09:45 MDT210P  4.32P  0.00P  
04/19/2020 10:00 MDT210P  4.32P  0.00P  
04/19/2020 10:15 MDT214P  4.33P  0.00P  
04/19/2020 10:30 MDT214P  4.33P  0.00P  
04/19/2020 10:45 MDT214P  4.33P  0.00P  
04/19/2020 11:00 MDT214P  4.33P  0.00P  
04/19/2020 11:15 MDT214P  4.33P  0.00P  
04/19/2020 11:30 MDT218P  4.34P  0.00P  
04/19/2020 11:45 MDT218P  4.34P  0.00P  
04/19/2020 12:00 MDT218P  4.34P  0.00P  
04/19/2020 12:15 MDT218P  4.34P  0.00P  
04/19/2020 12:30 MDT223P  4.35P  0.00P  
04/19/2020 12:45 MDT218P  4.34P  0.00P  
04/19/2020 13:00 MDT218P  4.34P  0.00P  
04/19/2020 13:15 MDT218P  4.34P  0.00P  
04/19/2020 13:30 MDT218P  4.34P  0.00P  
04/19/2020 13:45 MDT218P  4.34P  0.00P  
04/19/2020 14:00 MDT214P  4.33P  0.00P  
04/19/2020 14:15 MDT218P  4.34P  0.00P  
04/19/2020 14:30 MDT214P  4.33P  0.00P  
04/19/2020 14:45 MDT214P  4.33P  0.00P  
04/19/2020 15:00 MDT223P  4.35P  0.00P  
04/19/2020 15:15 MDT218P  4.34P  0.00P  
04/19/2020 15:30 MDT218P  4.34P  0.00P  
04/19/2020 15:45 MDT218P  4.34P  0.00P  
04/19/2020 16:00 MDT218P  4.34P  0.00P  
04/19/2020 16:15 MDT223P  4.35P  0.00P  
04/19/2020 16:30 MDT218P  4.34P  0.00P  
04/19/2020 16:45 MDT218P  4.34P  0.00P  
04/19/2020 17:00 MDT218P  4.34P  0.00P  
04/19/2020 17:15 MDT218P  4.34P  0.00P  
04/19/2020 17:30 MDT214P  4.33P  0.00P  
04/19/2020 17:45 MDT218P  4.34P  0.00P  
04/19/2020 18:00 MDT218P  4.34P  0.00P  
04/19/2020 18:15 MDT223P  4.35P  0.00P  
04/19/2020 18:30 MDT218P  4.34P  0.00P  
04/19/2020 18:45 MDT218P  4.34P  0.00P  
04/19/2020 19:00 MDT218P  4.34P  0.00P  
04/19/2020 19:15 MDT218P  4.34P  0.00P  
04/19/2020 19:30 MDT218P  4.34P  0.00P  
04/19/2020 19:45 MDT218P  4.34P  0.00P  
04/19/2020 20:00 MDT218P  4.34P  0.00P  
04/19/2020 20:15 MDT214P  4.33P  0.00P  
04/19/2020 20:30 MDT214P  4.33P  0.00P  
04/19/2020 20:45 MDT214P  4.33P  0.00P  
04/19/2020 21:00 MDT218P  4.34P  0.00P  
04/19/2020 21:15 MDT218P  4.34P  0.00P  
04/19/2020 21:30 MDT218P  4.34P  0.00P  
04/19/2020 21:45 MDT214P  4.33P  0.00P  
04/19/2020 22:00 MDT210P  4.32P  0.00P  
04/19/2020 22:15 MDT210P  4.32P  0.00P  
04/19/2020 22:30 MDT210P  4.32P  0.00P  
04/19/2020 22:45 MDT210P  4.32P  0.00P  
04/19/2020 23:00 MDT210P  4.32P  0.00P  
04/19/2020 23:15 MDT210P  4.32P  0.00P  
04/19/2020 23:30 MDT210P  4.32P  0.00P  
04/19/2020 23:45 MDT210P  4.32P  0.00P  
04/20/2020 00:00 MDT210P  4.32P  0.00P  
04/20/2020 00:15 MDT210P  4.32P  0.00P  
04/20/2020 00:30 MDT210P  4.32P  0.00P  
04/20/2020 00:45 MDT210P  4.32P  0.00P  
04/20/2020 01:00 MDT210P  4.32P  0.00P  
04/20/2020 01:15 MDT210P  4.32P  0.00P  
04/20/2020 01:30 MDT210P  4.32P  0.00P  
04/20/2020 01:45 MDT210P  4.32P  0.00P  
04/20/2020 02:00 MDT210P  4.32P  0.00P  
04/20/2020 02:15 MDT210P  4.32P  0.00P  
04/20/2020 02:30 MDT210P  4.32P  0.00P  
04/20/2020 02:45 MDT210P  4.32P  0.00P  
04/20/2020 03:00 MDT210P  4.32P  0.00P  
04/20/2020 03:15 MDT205P  4.31P  0.00P  
04/20/2020 03:30 MDT210P  4.32P  0.00P  
04/20/2020 03:45 MDT210P  4.32P  0.00P  
04/20/2020 04:00 MDT210P  4.32P  0.00P  
04/20/2020 04:15 MDT205P  4.31P  0.00P  
04/20/2020 04:30 MDT210P  4.32P  0.00P  
04/20/2020 04:45 MDT205P  4.31P  0.00P  
04/20/2020 05:00 MDT205P  4.31P  0.00P  
04/20/2020 05:15 MDT205P  4.31P  0.00P  
04/20/2020 05:30 MDT210P  4.32P  0.00P  
04/20/2020 05:45 MDT210P  4.32P  0.00P  
04/20/2020 06:00 MDT205P  4.31P  0.00P  
04/20/2020 06:15 MDT210P  4.32P  0.00P  
04/20/2020 06:30 MDT210P  4.32P  0.01P  
04/20/2020 06:45 MDT210P  4.32P  0.00P  
04/20/2020 07:00 MDT210P  4.32P  0.00P  
04/20/2020 07:15 MDT210P  4.32P  0.00P  
04/20/2020 07:30 MDT214P  4.33P  0.00P  
04/20/2020 07:45 MDT210P  4.32P  0.00P  
04/20/2020 08:00 MDT210P  4.32P  0.01P  
04/20/2020 08:15 MDT210P  4.32P  0.00P  
04/20/2020 08:30 MDT210P  4.32P  0.00P  
04/20/2020 08:45 MDT210P  4.32P  0.00P  
04/20/2020 09:00 MDT210P  4.32P  0.00P  
04/20/2020 09:15 MDT210P  4.32P  0.00P  
04/20/2020 09:30 MDT210P  4.32P  0.00P  
04/20/2020 09:45 MDT214P  4.33P  0.00P  
04/20/2020 10:00 MDT210P  4.32P  0.00P  
04/20/2020 10:15 MDT210P  4.32P  0.00P  
04/20/2020 10:30 MDT214P  4.33P  0.00P  
04/20/2020 10:45 MDT214P  4.33P  0.00P  
04/20/2020 11:00 MDT214P  4.33P  0.00P  
04/20/2020 11:15 MDT218P  4.34P  0.00P  
04/20/2020 11:30 MDT214P  4.33P  0.00P  
04/20/2020 11:45 MDT214P  4.33P  0.00P  
04/20/2020 12:00 MDT214P  4.33P  0.00P  
04/20/2020 12:15 MDT214P  4.33P  0.00P  
04/20/2020 12:30 MDT214P  4.33P  0.00P  
04/20/2020 12:45 MDT214P  4.33P  0.00P  
04/20/2020 13:00 MDT214P  4.33P  0.00P  
04/20/2020 13:15 MDT214P  4.33P  0.00P  
04/20/2020 13:30 MDT218P  4.34P  0.00P  
04/20/2020 13:45 MDT214P  4.33P  0.00P  
04/20/2020 14:00 MDT214P  4.33P  0.00P  
04/20/2020 14:15 MDT218P  4.34P  0.00P  
04/20/2020 14:30 MDT218P  4.34P  0.00P  
04/20/2020 14:45 MDT218P  4.34P  0.00P  
04/20/2020 15:00 MDT214P  4.33P  0.00P  
04/20/2020 15:15 MDT218P  4.34P  0.00P  
04/20/2020 15:30 MDT218P  4.34P  0.00P  
04/20/2020 15:45 MDT218P  4.34P  0.00P  
04/20/2020 16:00 MDT218P  4.34P  0.00P  
04/20/2020 16:15 MDT214P  4.33P  0.00P  
04/20/2020 16:30 MDT214P  4.33P  0.00P  
04/20/2020 16:45 MDT210P  4.32P  0.00P  
04/20/2020 17:00 MDT218P  4.34P  0.00P  
04/20/2020 17:15 MDT214P  4.33P  0.00P  
04/20/2020 17:30 MDT214P  4.33P  0.00P  
04/20/2020 17:45 MDT214P  4.33P  0.00P  
04/20/2020 18:00 MDT210P  4.32P  0.00P  
04/20/2020 18:15 MDT210P  4.32P  0.00P  
04/20/2020 18:30 MDT214P  4.33P  0.00P  
04/20/2020 18:45 MDT210P  4.32P  0.00P  
04/20/2020 19:00 MDT214P  4.33P  0.00P  
04/20/2020 19:15 MDT210P  4.32P  0.00P  
04/20/2020 19:30 MDT210P  4.32P  0.00P  
04/20/2020 19:45 MDT214P  4.33P  0.00P  
04/20/2020 20:00 MDT214P  4.33P  0.00P  
04/20/2020 20:15 MDT214P  4.33P  0.00P  
04/20/2020 20:30 MDT214P  4.33P  0.00P  
04/20/2020 20:45 MDT214P  4.33P  0.00P  
04/20/2020 21:00 MDT210P  4.32P  0.00P  
04/20/2020 21:15 MDT214P  4.33P  0.00P  
04/20/2020 21:30 MDT210P  4.32P  0.00P  
04/20/2020 21:45 MDT214P  4.33P  0.00P  
04/20/2020 22:00 MDT214P  4.33P  0.00P  
04/20/2020 22:15 MDT210P  4.32P  0.00P  
04/20/2020 22:30 MDT210P  4.32P  0.00P  
04/20/2020 22:45 MDT210P  4.32P  0.00P  
04/20/2020 23:00 MDT210P  4.32P  0.00P  
04/20/2020 23:15 MDT210P  4.32P  0.00P  
04/20/2020 23:30 MDT210P  4.32P  0.00P  
04/20/2020 23:45 MDT210P  4.32P  0.00P  
04/21/2020 00:00 MDT210P  4.32P  0.00P  
04/21/2020 00:15 MDT210P  4.32P  0.00P  
04/21/2020 00:30 MDT205P  4.31P  0.00P  
04/21/2020 00:45 MDT210P  4.32P  0.00P  
04/21/2020 01:00 MDT205P  4.31P  0.00P  
04/21/2020 01:15 MDT210P  4.32P  0.00P  
04/21/2020 01:30 MDT205P  4.31P  0.00P  
04/21/2020 01:45 MDT210P  4.32P  0.00P  
04/21/2020 02:00 MDT210P  4.32P  0.00P  
04/21/2020 02:15 MDT205P  4.31P  0.00P  
04/21/2020 02:30 MDT205P  4.31P  0.00P  
04/21/2020 02:45 MDT205P  4.31P  0.00P  
04/21/2020 03:00 MDT205P  4.31P  0.00P  
04/21/2020 03:15 MDT205P  4.31P  0.00P  
04/21/2020 03:30 MDT210P  4.32P  0.00P  
04/21/2020 03:45 MDT205P  4.31P  0.00P  
04/21/2020 04:00 MDT205P  4.31P  0.00P  
04/21/2020 04:15 MDT205P  4.31P  0.00P  
04/21/2020 04:30 MDT205P  4.31P  0.00P  
04/21/2020 04:45 MDT205P  4.31P  0.00P  
04/21/2020 05:00 MDT210P  4.32P  0.00P  
04/21/2020 05:15 MDT205P  4.31P  0.00P  
04/21/2020 05:30 MDT205P  4.31P  0.00P  
04/21/2020 05:45 MDT205P  4.31P  0.00P  
04/21/2020 06:00 MDT205P  4.31P  0.00P  
04/21/2020 06:15 MDT201P  4.30P  0.00P  
04/21/2020 06:30 MDT205P  4.31P  0.00P  
04/21/2020 06:45 MDT205P  4.31P  0.00P  
04/21/2020 07:00 MDT205P  4.31P  0.00P  
04/21/2020 07:15 MDT205P  4.31P  0.00P  
04/21/2020 07:30 MDT205P  4.31P  0.00P  
04/21/2020 07:45 MDT205P  4.31P  0.00P  
04/21/2020 08:00 MDT205P  4.31P  0.00P  
04/21/2020 08:15 MDT201P  4.30P  0.00P  
04/21/2020 08:30 MDT205P  4.31P  0.00P  
04/21/2020 08:45 MDT210P  4.32P  0.00P  
04/21/2020 09:00 MDT205P  4.31P  0.00P  
04/21/2020 09:15 MDT210P  4.32P  0.00P  
04/21/2020 09:30 MDT210P  4.32P  0.00P  
04/21/2020 09:45 MDT210P  4.32P  0.00P  
04/21/2020 10:00 MDT210P  4.32P  0.00P  
04/21/2020 10:15 MDT210P  4.32P  0.00P  
04/21/2020 10:30 MDT210P  4.32P  0.00P  
04/21/2020 10:45 MDT214P  4.33P  0.00P  
04/21/2020 11:00 MDT210P  4.32P  0.00P  
04/21/2020 11:15 MDT214P  4.33P  0.00P  
04/21/2020 11:30 MDT214P  4.33P  0.00P  
04/21/2020 11:45 MDT214P  4.33P  0.00P  
04/21/2020 12:00 MDT214P  4.33P  0.00P  
04/21/2020 12:15 MDT214P  4.33P  0.00P  
04/21/2020 12:30 MDT214P  4.33P  0.00P  
04/21/2020 12:45 MDT210P  4.32P  0.00P  
04/21/2020 13:00 MDT214P  4.33P  0.00P  
04/21/2020 13:15 MDT214P  4.33P  0.00P  
04/21/2020 13:30 MDT214P  4.33P  0.00P  
04/21/2020 13:45 MDT214P  4.33P  0.00P  
04/21/2020 14:00 MDT214P  4.33P  0.00P  
04/21/2020 14:15 MDT214P  4.33P  0.00P  
04/21/2020 14:30 MDT214P  4.33P  0.00P  
04/21/2020 14:45 MDT214P  4.33P  0.00P  
04/21/2020 15:00 MDT214P  4.33P  0.00P  
04/21/2020 15:15 MDT214P  4.33P  0.00P  
04/21/2020 15:30 MDT218P  4.34P  0.00P  
04/21/2020 15:45 MDT214P  4.33P  0.00P  
04/21/2020 16:00 MDT214P  4.33P  0.00P  
04/21/2020 16:15 MDT214P  4.33P  0.00P  
04/21/2020 16:30 MDT218P  4.34P  0.00P  
04/21/2020 16:45 MDT214P  4.33P  0.00P  
04/21/2020 17:00 MDT218P  4.34P  0.00P  
04/21/2020 17:15 MDT218P  4.34P  0.00P  
04/21/2020 17:30 MDT218P  4.34P  0.00P  
04/21/2020 17:45 MDT214P  4.33P  0.00P  
04/21/2020 18:00 MDT218P  4.34P  0.00P  
04/21/2020 18:15 MDT214P  4.33P  0.00P  
04/21/2020 18:30 MDT218P  4.34P  0.00P  
04/21/2020 18:45 MDT218P  4.34P  0.00P  
04/21/2020 19:00 MDT218P  4.34P  0.00P  
04/21/2020 19:15 MDT218P  4.34P  0.00P  
04/21/2020 19:30 MDT218P  4.34P  0.00P  
04/21/2020 19:45 MDT218P  4.34P  0.00P  
04/21/2020 20:00 MDT218P  4.34P  0.00P  
04/21/2020 20:15 MDT218P  4.34P  0.00P  
04/21/2020 20:30 MDT218P  4.34P  0.00P  
04/21/2020 20:45 MDT214P  4.33P  0.00P  
04/21/2020 21:00 MDT218P  4.34P  0.00P  
04/21/2020 21:15 MDT218P  4.34P  0.00P  
04/21/2020 21:30 MDT218P  4.34P  0.00P  
04/21/2020 21:45 MDT214P  4.33P  0.00P  
04/21/2020 22:00 MDT218P  4.34P  0.00P  
04/21/2020 22:15 MDT218P  4.34P  0.00P  
04/21/2020 22:30 MDT218P  4.34P  0.00P  
04/21/2020 22:45 MDT223P  4.35P  0.00P  
04/21/2020 23:00 MDT218P  4.34P  0.00P  
04/21/2020 23:15 MDT223P  4.35P  0.00P  
04/21/2020 23:30 MDT223P  4.35P  0.00P  
04/21/2020 23:45 MDT218P  4.34P  0.00P  
04/22/2020 00:00 MDT218P  4.34P  0.00P  
04/22/2020 00:15 MDT218P  4.34P  0.00P  
04/22/2020 00:30 MDT218P  4.34P  0.00P  
04/22/2020 00:45 MDT218P  4.34P  0.00P  
04/22/2020 01:00 MDT214P  4.33P  0.00P  
04/22/2020 01:15 MDT218P  4.34P  0.00P  
04/22/2020 01:30 MDT214P  4.33P  0.00P  
04/22/2020 01:45 MDT214P  4.33P  0.00P  
04/22/2020 02:00 MDT218P  4.34P  0.00P  
04/22/2020 02:15 MDT214P  4.33P  0.00P  
04/22/2020 02:30 MDT214P  4.33P  0.00P  
04/22/2020 02:45 MDT218P  4.34P  0.00P  
04/22/2020 03:00 MDT214P  4.33P  0.00P  
04/22/2020 03:15 MDT214P  4.33P  0.00P  
04/22/2020 03:30 MDT210P  4.32P  0.00P  
04/22/2020 03:45 MDT214P  4.33P  0.00P  
04/22/2020 04:00 MDT210P  4.32P  0.00P  
04/22/2020 04:15 MDT210P  4.32P  0.00P  
04/22/2020 04:30 MDT214P  4.33P  0.00P  
04/22/2020 04:45 MDT210P  4.32P  0.00P  
04/22/2020 05:00 MDT214P  4.33P  0.00P  
04/22/2020 05:15 MDT210P  4.32P  0.00P  
04/22/2020 05:30 MDT214P  4.33P  0.00P  
04/22/2020 05:45 MDT214P  4.33P  0.00P  
04/22/2020 06:00 MDT214P  4.33P  0.00P  
04/22/2020 06:15 MDT214P  4.33P  0.00P  
04/22/2020 06:30 MDT214P  4.33P  0.00P  
04/22/2020 06:45 MDT214P  4.33P  0.00P  
04/22/2020 07:00 MDT218P  4.34P  0.00P  
04/22/2020 07:15 MDT218P  4.34P  0.00P  
04/22/2020 07:30 MDT218P  4.34P  0.00P  
04/22/2020 07:45 MDT218P  4.34P  0.00P  
04/22/2020 08:00 MDT214P  4.33P  0.00P  
04/22/2020 08:15 MDT218P  4.34P  0.00P  
04/22/2020 08:30 MDT223P  4.35P  0.00P  
04/22/2020 08:45 MDT218P  4.34P  0.00P  
04/22/2020 09:00 MDT218P  4.34P  0.00P  
04/22/2020 09:15 MDT223P  4.35P  0.00P  
04/22/2020 09:30 MDT223P  4.35P  0.00P  
04/22/2020 09:45 MDT223P  4.35P  0.00P  
04/22/2020 10:00 MDT227P  4.36P  0.00P  
04/22/2020 10:15 MDT227P  4.36P  0.00P  
04/22/2020 10:30 MDT227P  4.36P  0.00P  
04/22/2020 10:45 MDT227P  4.36P  0.00P  
04/22/2020 11:00 MDT227P  4.36P  0.00P  
04/22/2020 11:15 MDT227P  4.36P  0.00P  
04/22/2020 11:30 MDT227P  4.36P  0.00P  
04/22/2020 11:45 MDT227P  4.36P  0.00P  
04/22/2020 12:00 MDT227P  4.36P  0.00P  
04/22/2020 12:15 MDT232P  4.37P  0.00P  
04/22/2020 12:30 MDT232P  4.37P  0.00P  
04/22/2020 12:45 MDT232P  4.37P  0.00P  
04/22/2020 13:00 MDT232P  4.37P  0.00P  
04/22/2020 13:15 MDT236P  4.38P  0.00P  
04/22/2020 13:30 MDT232P  4.37P  0.00P  
04/22/2020 13:45 MDT236P  4.38P  0.00P  
04/22/2020 14:00 MDT236P  4.38P  0.00P  
04/22/2020 14:15 MDT232P  4.37P  0.00P  
04/22/2020 14:30 MDT236P  4.38P  0.00P  
04/22/2020 14:45 MDT232P  4.37P  0.00P  
04/22/2020 15:00 MDT236P  4.38P  0.00P  
04/22/2020 15:15 MDT236P  4.38P  0.00P  
04/22/2020 15:30 MDT236P  4.38P  0.00P  
04/22/2020 15:45 MDT236P  4.38P  0.00P  
04/22/2020 16:00 MDT236P  4.38P  0.00P  
04/22/2020 16:15 MDT232P  4.37P  0.00P  
04/22/2020 16:30 MDT236P  4.38P  0.00P  
04/22/2020 16:45 MDT236P  4.38P  0.00P  
04/22/2020 17:00 MDT236P  4.38P  0.00P  
04/22/2020 17:15 MDT236P  4.38P  0.00P  
04/22/2020 17:30 MDT236P  4.38P  0.00P  
04/22/2020 17:45 MDT236P  4.38P  0.00P  
04/22/2020 18:00 MDT232P  4.37P  0.00P  
04/22/2020 18:15 MDT232P  4.37P  0.00P  
04/22/2020 18:30 MDT236P  4.38P  0.00P  
04/22/2020 18:45 MDT236P  4.38P  0.00P  
04/22/2020 19:00 MDT232P  4.37P  0.00P  
04/22/2020 19:15 MDT232P  4.37P  0.00P  
04/22/2020 19:30 MDT232P  4.37P  0.00P  
04/22/2020 19:45 MDT232P  4.37P  0.00P  
04/22/2020 20:00 MDT232P  4.37P  0.00P  
04/22/2020 20:15 MDT227P  4.36P  0.00P  
04/22/2020 20:30 MDT227P  4.36P  0.00P  
04/22/2020 20:45 MDT227P  4.36P  0.00P  
04/22/2020 21:00 MDT227P  4.36P  0.00P  
04/22/2020 21:15 MDT223P  4.35P  0.00P  
04/22/2020 21:30 MDT223P  4.35P  0.00P  
04/22/2020 21:45 MDT227P  4.36P  0.00P  
04/22/2020 22:00 MDT223P  4.35P  0.00P  
04/22/2020 22:15 MDT223P  4.35P  0.00P  
04/22/2020 22:30 MDT218P  4.34P  0.00P  
04/22/2020 22:45 MDT223P  4.35P  0.00P  
04/22/2020 23:00 MDT223P  4.35P  0.00P  
04/22/2020 23:15 MDT227P  4.36P  0.00P  
04/22/2020 23:30 MDT223P  4.35P  0.00P  
04/22/2020 23:45 MDT223P  4.35P  0.00P  
04/23/2020 00:00 MDT223P  4.35P  0.00P  
04/23/2020 00:15 MDT223P  4.35P  0.00P  
04/23/2020 00:30 MDT218P  4.34P  0.00P  
04/23/2020 00:45 MDT223P  4.35P  0.00P  
04/23/2020 01:00 MDT223P  4.35P  0.00P  
04/23/2020 01:15 MDT218P  4.34P  0.00P  
04/23/2020 01:30 MDT218P  4.34P  0.00P  
04/23/2020 01:45 MDT223P  4.35P  0.00P  
04/23/2020 02:00 MDT223P  4.35P  0.00P  
04/23/2020 02:15 MDT227P  4.36P  0.00P  
04/23/2020 02:30 MDT223P  4.35P  0.00P  
04/23/2020 02:45 MDT218P  4.34P  0.00P  
04/23/2020 03:00 MDT218P  4.34P  0.00P  
04/23/2020 03:15 MDT218P  4.34P  0.00P  
04/23/2020 03:30 MDT218P  4.34P  0.00P  
04/23/2020 03:45 MDT218P  4.34P  0.00P  
04/23/2020 04:00 MDT218P  4.34P  0.00P  
04/23/2020 04:15 MDT223P  4.35P  0.00P  
04/23/2020 04:30 MDT227P  4.36P  0.00P  
04/23/2020 04:45 MDT227P  4.36P  0.00P  
04/23/2020 05:00 MDT223P  4.35P  0.00P  
04/23/2020 05:15 MDT227P  4.36P  0.00P  
04/23/2020 05:30 MDT227P  4.36P  0.00P  
04/23/2020 05:45 MDT223P  4.35P  0.00P  
04/23/2020 06:00 MDT223P  4.35P  0.00P  
04/23/2020 06:15 MDT227P  4.36P  0.00P  
04/23/2020 06:30 MDT227P  4.36P  0.00P  
04/23/2020 06:45 MDT227P  4.36P  0.00P  
04/23/2020 07:00 MDT223P  4.35P  0.00P  
04/23/2020 07:15 MDT227P  4.36P  0.00P  
04/23/2020 07:30 MDT227P  4.36P  0.00P  
04/23/2020 07:45 MDT223P  4.35P  0.00P  
04/23/2020 08:00 MDT227P  4.36P  0.00P  
04/23/2020 08:15 MDT223P  4.35P  0.00P  
04/23/2020 08:30 MDT227P  4.36P  0.00P  
04/23/2020 08:45 MDT227P  4.36P  0.00P  
04/23/2020 09:00 MDT227P  4.36P  0.00P  
04/23/2020 09:15 MDT232P  4.37P  0.00P  
04/23/2020 09:30 MDT232P  4.37P  0.00P  
04/23/2020 09:45 MDT232P  4.37P  0.00P  
04/23/2020 10:00 MDT236P  4.38P  0.00P  
04/23/2020 10:15 MDT236P  4.38P  0.00P  
04/23/2020 10:30 MDT236P  4.38P  0.00P  
04/23/2020 10:45 MDT236P  4.38P  0.00P  
04/23/2020 11:00 MDT241P  4.39P  0.00P  
04/23/2020 11:15 MDT241P  4.39P  0.00P  
04/23/2020 11:30 MDT241P  4.39P  0.00P  
04/23/2020 11:45 MDT236P  4.38P  0.00P  
04/23/2020 12:00 MDT241P  4.39P  0.00P  
04/23/2020 12:15 MDT246P  4.40P  0.00P  
04/23/2020 12:30 MDT246P  4.40P  0.00P  
04/23/2020 12:45 MDT246P  4.40P  0.00P  
04/23/2020 13:00 MDT246P  4.40P  0.00P  
04/23/2020 13:15 MDT246P  4.40P  0.00P  
04/23/2020 13:30 MDT246P  4.40P  0.00P  
04/23/2020 13:45 MDT250P  4.41P  0.00P  
04/23/2020 14:00 MDT250P  4.41P  0.00P  
04/23/2020 14:15 MDT246P  4.40P  0.00P  
04/23/2020 14:30 MDT246P  4.40P  0.00P  
04/23/2020 14:45 MDT246P  4.40P  0.00P  
04/23/2020 15:00 MDT250P  4.41P  0.00P  
04/23/2020 15:15 MDT246P  4.40P  0.00P  
04/23/2020 15:30 MDT246P  4.40P  0.00P  
04/23/2020 15:45 MDT246P  4.40P  0.00P  
04/23/2020 16:00 MDT246P  4.40P  0.00P  
04/23/2020 16:15 MDT246P  4.40P  0.00P  
04/23/2020 16:30 MDT246P  4.40P  0.00P  
04/23/2020 16:45 MDT246P  4.40P  0.00P  
04/23/2020 17:00 MDT246P  4.40P  0.00P  
04/23/2020 17:15 MDT241P  4.39P  0.00P  
04/23/2020 17:30 MDT246P  4.40P  0.00P  
04/23/2020 17:45 MDT246P  4.40P  0.00P  
04/23/2020 18:00 MDT246P  4.40P  0.00P  
04/23/2020 18:15 MDT241P  4.39P  0.00P  
04/23/2020 18:30 MDT246P  4.40P  0.00P  
04/23/2020 18:45 MDT246P  4.40P  0.01P  
04/23/2020 19:00 MDT250P  4.41P  0.00P  
04/23/2020 19:15 MDT246P  4.40P  0.00P  
04/23/2020 19:30 MDT246P  4.40P  0.00P  
04/23/2020 19:45 MDT246P  4.40P  0.00P  
04/23/2020 20:00 MDT246P  4.40P  0.00P  
04/23/2020 20:15 MDT246P  4.40P  0.00P  
04/23/2020 20:30 MDT241P  4.39P  0.00P  
04/23/2020 20:45 MDT246P  4.40P  0.00P  
04/23/2020 21:00 MDT246P  4.40P  0.00P  
04/23/2020 21:15 MDT241P  4.39P  0.00P  
04/23/2020 21:30 MDT241P  4.39P  0.00P  
04/23/2020 21:45 MDT246P  4.40P  0.00P  
04/23/2020 22:00 MDT246P  4.40P  0.00P  
04/23/2020 22:15 MDT246P  4.40P  0.00P  
04/23/2020 22:30 MDT246P  4.40P  0.00P  
04/23/2020 22:45 MDT246P  4.40P  0.01P  
04/23/2020 23:00 MDT241P  4.39P  0.00P  
04/23/2020 23:15 MDT241P  4.39P  0.00P  
04/23/2020 23:30 MDT246P  4.40P  0.00P  
04/23/2020 23:45 MDT246P  4.40P  0.00P  
04/24/2020 00:00 MDT241P  4.39P  0.00P  
04/24/2020 00:15 MDT241P  4.39P  0.00P  
04/24/2020 00:30 MDT241P  4.39P  0.00P  
04/24/2020 00:45 MDT241P  4.39P  0.00P  
04/24/2020 01:00 MDT236P  4.38P  0.00P  
04/24/2020 01:15 MDT241P  4.39P  0.00P  
04/24/2020 01:30 MDT241P  4.39P  0.00P  
04/24/2020 01:45 MDT236P  4.38P  0.00P  
04/24/2020 02:00 MDT241P  4.39P  0.00P  
04/24/2020 02:15 MDT241P  4.39P  0.00P  
04/24/2020 02:30 MDT241P  4.39P  0.00P  
04/24/2020 02:45 MDT241P  4.39P  0.00P  
04/24/2020 03:00 MDT241P  4.39P  0.00P  
04/24/2020 03:15 MDT241P  4.39P  0.00P  
04/24/2020 03:30 MDT241P  4.39P  0.00P  
04/24/2020 03:45 MDT241P  4.39P  0.00P  
04/24/2020 04:00 MDT241P  4.39P  0.00P  
04/24/2020 04:15 MDT246P  4.40P  0.00P  
04/24/2020 04:30 MDT246P  4.40P  0.00P  
04/24/2020 04:45 MDT246P  4.40P  0.00P  
04/24/2020 05:00 MDT241P  4.39P  0.00P  
04/24/2020 05:15 MDT246P  4.40P  0.00P  
04/24/2020 05:30 MDT246P  4.40P  0.00P  
04/24/2020 05:45 MDT246P  4.40P  0.00P  
04/24/2020 06:00 MDT241P  4.39P  0.00P  
04/24/2020 06:15 MDT246P  4.40P  0.00P  
04/24/2020 06:30 MDT241P  4.39P  0.00P  
04/24/2020 06:45 MDT241P  4.39P  0.00P  
04/24/2020 07:00 MDT241P  4.39P  0.00P  
04/24/2020 07:15 MDT241P  4.39P  0.00P  
04/24/2020 07:30 MDT241P  4.39P  0.00P  
04/24/2020 07:45 MDT246P  4.40P  0.00P  
04/24/2020 08:00 MDT241P  4.39P  0.00P  
04/24/2020 08:15 MDT241P  4.39P  0.00P  
04/24/2020 08:30 MDT250P  4.41P  0.00P  
04/24/2020 08:45 MDT246P  4.40P  0.00P  
04/24/2020 09:00 MDT246P  4.40P  0.00P  
04/24/2020 09:15 MDT246P  4.40P  0.00P  
04/24/2020 09:30 MDT250P  4.41P  0.00P  
04/24/2020 09:45 MDT255P  4.42P  0.00P  
04/24/2020 10:00 MDT255P  4.42P  0.00P  
04/24/2020 10:15 MDT255P  4.42P  0.00P  
04/24/2020 10:30 MDT260P  4.43P  0.00P  
04/24/2020 10:45 MDT260P  4.43P  0.00P  
04/24/2020 11:00 MDT260P  4.43P  0.00P  
04/24/2020 11:15 MDT269P  4.45P  0.00P  
04/24/2020 11:30 MDT265P  4.44P  0.00P  
04/24/2020 11:45 MDT269P  4.45P  0.00P  
04/24/2020 12:00 MDT265P  4.44P  0.00P  
04/24/2020 12:15 MDT269P  4.45P  0.00P  
04/24/2020 12:30 MDT269P  4.45P  0.00P  
04/24/2020 12:45 MDT274P  4.46P  0.00P  
04/24/2020 13:00 MDT274P  4.46P  0.00P  
04/24/2020 13:15 MDT274P  4.46P  0.00P  
04/24/2020 13:30 MDT279P  4.47P  0.00P  
04/24/2020 13:45 MDT284P  4.48P  0.00P  
04/24/2020 14:00 MDT284P  4.48P  0.00P  
04/24/2020 14:15 MDT284P  4.48P  0.00P  
04/24/2020 14:30 MDT284P  4.48P  0.00P  
04/24/2020 14:45 MDT289P  4.49P  0.00P  
04/24/2020 15:00 MDT289P  4.49P  0.00P  
04/24/2020 15:15 MDT284P  4.48P  0.00P  
04/24/2020 15:30 MDT284P  4.48P  0.00P  
04/24/2020 15:45 MDT279P  4.47P  0.00P  
04/24/2020 16:00 MDT284P  4.48P  0.00P  
04/24/2020 16:15 MDT279P  4.47P  0.00P  
04/24/2020 16:30 MDT284P  4.48P  0.00P  
04/24/2020 16:45 MDT279P  4.47P  0.00P  
04/24/2020 17:00 MDT284P  4.48P  0.00P  
04/24/2020 17:15 MDT279P  4.47P  0.00P  
04/24/2020 17:30 MDT279P  4.47P  0.00P  
04/24/2020 17:45 MDT279P  4.47P  0.00P  
04/24/2020 18:00 MDT279P  4.47P  0.00P  
04/24/2020 18:15 MDT274P  4.46P  0.00P  
04/24/2020 18:30 MDT279P  4.47P  0.00P  
04/24/2020 18:45 MDT274P  4.46P  0.00P  
04/24/2020 19:00 MDT274P  4.46P  0.00P  
04/24/2020 19:15 MDT274P  4.46P  0.00P  
04/24/2020 19:30 MDT274P  4.46P  0.00P  
04/24/2020 19:45 MDT274P  4.46P  0.00P  
04/24/2020 20:00 MDT274P  4.46P  0.00P  
04/24/2020 20:15 MDT274P  4.46P  0.00P  
04/24/2020 20:30 MDT274P  4.46P  0.00P  
04/24/2020 20:45 MDT274P  4.46P  0.00P  
04/24/2020 21:00 MDT274P  4.46P  0.00P  
04/24/2020 21:15 MDT269P  4.45P  0.00P  
04/24/2020 21:30 MDT274P  4.46P  0.00P  
04/24/2020 21:45 MDT274P  4.46P  0.00P  
04/24/2020 22:00 MDT274P  4.46P  0.00P  
04/24/2020 22:15 MDT274P  4.46P  0.00P  
04/24/2020 22:30 MDT274P  4.46P  0.00P  
04/24/2020 22:45 MDT274P  4.46P  0.00P  
04/24/2020 23:00 MDT269P  4.45P  0.00P  
04/24/2020 23:15 MDT265P  4.44P  0.00P  
04/24/2020 23:30 MDT269P  4.45P  0.00P  
04/24/2020 23:45 MDT269P  4.45P  0.00P  
04/25/2020 00:00 MDT269P  4.45P  0.00P  
04/25/2020 00:15 MDT269P  4.45P  0.00P  
04/25/2020 00:30 MDT265P  4.44P  0.00P  
04/25/2020 00:45 MDT265P  4.44P  0.00P  
04/25/2020 01:00 MDT269P  4.45P  0.00P  
04/25/2020 01:15 MDT265P  4.44P  0.00P  
04/25/2020 01:30 MDT265P  4.44P  0.00P  
04/25/2020 01:45 MDT265P  4.44P  0.00P  
04/25/2020 02:00 MDT265P  4.44P  0.00P  
04/25/2020 02:15 MDT265P  4.44P  0.00P  
04/25/2020 02:30 MDT265P  4.44P  0.00P  
04/25/2020 02:45 MDT265P  4.44P  0.00P  
04/25/2020 03:00 MDT265P  4.44P  0.00P  
04/25/2020 03:15 MDT265P  4.44P  0.00P  
04/25/2020 03:30 MDT265P  4.44P  0.00P  
04/25/2020 03:45 MDT265P  4.44P  0.00P  
04/25/2020 04:00 MDT265P  4.44P  0.00P  
04/25/2020 04:15 MDT265P  4.44P  0.00P  
04/25/2020 04:30 MDT265P  4.44P  0.00P  
04/25/2020 04:45 MDT265P  4.44P  0.00P  
04/25/2020 05:00 MDT265P  4.44P  0.00P  
04/25/2020 05:15 MDT269P  4.45P  0.00P  
04/25/2020 05:30 MDT265P  4.44P  0.00P  
04/25/2020 05:45 MDT265P  4.44P  0.00P  
04/25/2020 06:00 MDT269P  4.45P  0.00P  
04/25/2020 06:15 MDT265P  4.44P  0.00P  
04/25/2020 06:30 MDT265P  4.44P  0.00P  
04/25/2020 06:45 MDT265P  4.44P  0.00P  
04/25/2020 07:00 MDT265P  4.44P  0.00P  
04/25/2020 07:15 MDT260P  4.43P  0.00P  
04/25/2020 07:30 MDT265P  4.44P  0.00P  
04/25/2020 07:45 MDT265P  4.44P  0.00P  
04/25/2020 08:00 MDT265P  4.44P  0.00P  
04/25/2020 08:15 MDT265P  4.44P  0.00P  
04/25/2020 08:30 MDT265P  4.44P  0.00P  
04/25/2020 08:45 MDT265P  4.44P  0.00P  
04/25/2020 09:00 MDT265P  4.44P  0.00P  
04/25/2020 09:15 MDT269P  4.45P  0.00P  
04/25/2020 09:30 MDT269P  4.45P  0.00P  
04/25/2020 09:45 MDT269P  4.45P  0.00P  
04/25/2020 10:00 MDT269P  4.45P  0.00P  
04/25/2020 10:15 MDT269P  4.45P  0.00P  
04/25/2020 10:30 MDT274P  4.46P  0.00P  
04/25/2020 10:45 MDT269P  4.45P  0.00P  
04/25/2020 11:00 MDT265P  4.44P  0.00P  
04/25/2020 11:15 MDT269P  4.45P  0.00P  
04/25/2020 11:30 MDT269P  4.45P  0.00P  
04/25/2020 11:45 MDT274P  4.46P  0.00P  
04/25/2020 12:00 MDT269P  4.45P  0.00P  
04/25/2020 12:15 MDT269P  4.45P  0.00P  
04/25/2020 12:30 MDT269P  4.45P  0.00P  
04/25/2020 12:45 MDT274P  4.46P  0.00P  
04/25/2020 13:00 MDT274P  4.46P  0.00P  
04/25/2020 13:15 MDT274P  4.46P  0.00P  
04/25/2020 13:30 MDT269P  4.45P  0.00P  
04/25/2020 13:45 MDT279P  4.47P  0.00P  
04/25/2020 14:00 MDT269P  4.45P  0.00P  
04/25/2020 14:15 MDT269P  4.45P  0.00P  
04/25/2020 14:30 MDT269P  4.45P  0.00P  
04/25/2020 14:45 MDT269P  4.45P  0.00P  
04/25/2020 15:00 MDT265P  4.44P  0.00P  
04/25/2020 15:15 MDT269P  4.45P  0.00P  
04/25/2020 15:30 MDT269P  4.45P  0.00P  
04/25/2020 15:45 MDT269P  4.45P  0.00P  
04/25/2020 16:00 MDT269P  4.45P  0.00P  
04/25/2020 16:15 MDT269P  4.45P  0.00P  
04/25/2020 16:30 MDT269P  4.45P  0.00P  
04/25/2020 16:45 MDT269P  4.45P  0.00P  
04/25/2020 17:00 MDT269P  4.45P  0.00P  
04/25/2020 17:15 MDT269P  4.45P  0.00P  
04/25/2020 17:30 MDT269P  4.45P  0.00P  
04/25/2020 17:45 MDT265P  4.44P  0.00P  
04/25/2020 18:00 MDT269P  4.45P  0.00P  
04/25/2020 18:15 MDT269P  4.45P  0.00P  
04/25/2020 18:30 MDT265P  4.44P  0.00P  
04/25/2020 18:45 MDT265P  4.44P  0.00P  
04/25/2020 19:00 MDT265P  4.44P  0.00P  
04/25/2020 19:15 MDT265P  4.44P  0.00P  
04/25/2020 19:30 MDT265P  4.44P  0.00P  
04/25/2020 19:45 MDT265P  4.44P  0.00P  
04/25/2020 20:00 MDT265P  4.44P  0.00P  
04/25/2020 20:15 MDT269P  4.45P  0.00P  
04/25/2020 20:30 MDT269P  4.45P  0.00P  
04/25/2020 20:45 MDT265P  4.44P  0.00P  
04/25/2020 21:00 MDT269P  4.45P  0.00P  
04/25/2020 21:15 MDT269P  4.45P  0.00P  
04/25/2020 21:30 MDT265P  4.44P  0.00P  
04/25/2020 21:45 MDT265P  4.44P  0.00P  
04/25/2020 22:00 MDT265P  4.44P  0.00P  
04/25/2020 22:15 MDT265P  4.44P  0.00P  
04/25/2020 22:30 MDT260P  4.43P  0.00P  
04/25/2020 22:45 MDT265P  4.44P  0.00P  
04/25/2020 23:00 MDT265P  4.44P  0.00P  
04/25/2020 23:15 MDT260P  4.43P  0.00P  
04/25/2020 23:30 MDT260P  4.43P  0.00P  
04/25/2020 23:45 MDT260P  4.43P  0.00P  
04/26/2020 00:00 MDT260P  4.43P  0.00P  
04/26/2020 00:15 MDT260P  4.43P  0.00P  
04/26/2020 00:30 MDT260P  4.43P  0.00P  
04/26/2020 00:45 MDT265P  4.44P  0.00P  
04/26/2020 01:00 MDT260P  4.43P  0.00P  
04/26/2020 01:15 MDT260P  4.43P  0.00P  
04/26/2020 01:30 MDT255P  4.42P  0.00P  
04/26/2020 01:45 MDT260P  4.43P  0.00P  
04/26/2020 02:00 MDT260P  4.43P  0.00P  
04/26/2020 02:15 MDT260P  4.43P  0.00P  
04/26/2020 02:30 MDT260P  4.43P  0.00P  
04/26/2020 02:45 MDT255P  4.42P  0.00P  
04/26/2020 03:00 MDT260P  4.43P  0.00P  
04/26/2020 03:15 MDT255P  4.42P  0.00P  
04/26/2020 03:30 MDT260P  4.43P  0.00P  
04/26/2020 03:45 MDT260P  4.43P  0.00P  
04/26/2020 04:00 MDT260P  4.43P  0.00P  
04/26/2020 04:15 MDT260P  4.43P  0.00P  
04/26/2020 04:30 MDT260P  4.43P  0.00P  
04/26/2020 04:45 MDT260P  4.43P  0.00P  
04/26/2020 05:00 MDT260P  4.43P  0.00P  
04/26/2020 05:15 MDT260P  4.43P  0.00P  
04/26/2020 05:30 MDT260P  4.43P  0.00P  
04/26/2020 05:45 MDT265P  4.44P  0.00P  
04/26/2020 06:00 MDT265P  4.44P  0.00P  
04/26/2020 06:15 MDT265P  4.44P  0.00P  
04/26/2020 06:30 MDT265P  4.44P  0.00P  
04/26/2020 06:45 MDT269P  4.45P  0.00P  
04/26/2020 07:00 MDT265P  4.44P  0.00P  
04/26/2020 07:15 MDT265P  4.44P  0.00P  
04/26/2020 07:30 MDT269P  4.45P  0.00P  
04/26/2020 07:45 MDT265P  4.44P  0.00P  
04/26/2020 08:00 MDT269P  4.45P  0.00P  
04/26/2020 08:15 MDT274P  4.46P  0.00P  
04/26/2020 08:30 MDT274P  4.46P  0.00P  
04/26/2020 08:45 MDT279P  4.47P  0.00P  
04/26/2020 09:00 MDT274P  4.46P  0.00P  
04/26/2020 09:15 MDT274P  4.46P  0.00P  
04/26/2020 09:30 MDT284P  4.48P  0.00P  
04/26/2020 09:45 MDT284P  4.48P  0.00P  
04/26/2020 10:00 MDT284P  4.48P  0.00P  
04/26/2020 10:15 MDT289P  4.49P  0.00P  
04/26/2020 10:30 MDT289P  4.49P  0.00P  
04/26/2020 10:45 MDT289P  4.49P  0.00P  
04/26/2020 11:00 MDT294P  4.50P  0.00P  
04/26/2020 11:15 MDT294P  4.50P  0.00P  
04/26/2020 11:30 MDT294P  4.50P  0.00P  
04/26/2020 11:45 MDT294P  4.50P  0.00P  
04/26/2020 12:00 MDT294P  4.50P  0.00P  
04/26/2020 12:15 MDT294P  4.50P  0.00P  
04/26/2020 12:30 MDT294P  4.50P  0.00P  
04/26/2020 12:45 MDT294P  4.50P  0.00P  
04/26/2020 13:00 MDT294P  4.50P  0.00P  
04/26/2020 13:15 MDT294P  4.50P  0.00P  
04/26/2020 13:30 MDT294P  4.50P  0.00P  
04/26/2020 13:45 MDT289P  4.49P  0.00P  
04/26/2020 14:00 MDT294P  4.50P  0.00P  
04/26/2020 14:15 MDT294P  4.50P  0.00P  
04/26/2020 14:30 MDT294P  4.50P  0.00P  
04/26/2020 14:45 MDT294P  4.50P  0.00P  
04/26/2020 15:00 MDT300P  4.51P  0.00P  
04/26/2020 15:15 MDT300P  4.51P  0.00P  
04/26/2020 15:30 MDT294P  4.50P  0.00P  
04/26/2020 15:45 MDT294P  4.50P  0.00P  
04/26/2020 16:00 MDT294P  4.50P  0.00P  
04/26/2020 16:15 MDT294P  4.50P  0.00P  
04/26/2020 16:30 MDT300P  4.51P  0.00P  
04/26/2020 16:45 MDT294P  4.50P  0.00P  
04/26/2020 17:00 MDT289P  4.49P  0.00P  
04/26/2020 17:15 MDT294P  4.50P  0.00P  
04/26/2020 17:30 MDT294P  4.50P  0.00P  
04/26/2020 17:45 MDT289P  4.49P  0.00P  
04/26/2020 18:00 MDT289P  4.49P  0.00P  
04/26/2020 18:15 MDT294P  4.50P  0.00P  
04/26/2020 18:30 MDT294P  4.50P  0.00P  
04/26/2020 18:45 MDT289P  4.49P  0.00P  
04/26/2020 19:00 MDT294P  4.50P  0.00P  
04/26/2020 19:15 MDT294P  4.50P  0.00P  
04/26/2020 19:30 MDT284P  4.48P  0.00P  
04/26/2020 19:45 MDT289P  4.49P  0.00P  
04/26/2020 20:00 MDT294P  4.50P  0.00P  
04/26/2020 20:15 MDT294P  4.50P  0.00P  
04/26/2020 20:30 MDT300P  4.51P  0.00P  
04/26/2020 20:45 MDT294P  4.50P  0.00P  
04/26/2020 21:00 MDT294P  4.50P  0.00P  
04/26/2020 21:15 MDT294P  4.50P  0.00P  
04/26/2020 21:30 MDT294P  4.50P  0.00P  
04/26/2020 21:45 MDT289P  4.49P  0.00P  
04/26/2020 22:00 MDT294P  4.50P  0.00P  
04/26/2020 22:15 MDT294P  4.50P  0.00P  
04/26/2020 22:30 MDT294P  4.50P  0.00P  
04/26/2020 22:45 MDT294P  4.50P  0.00P  
04/26/2020 23:00 MDT289P  4.49P  0.00P  
04/26/2020 23:15 MDT294P  4.50P  0.00P  
04/26/2020 23:30 MDT289P  4.49P  0.00P  
04/26/2020 23:45 MDT294P  4.50P  0.00P  
04/27/2020 00:00 MDT289P  4.49P  0.00P  
04/27/2020 00:15 MDT289P  4.49P  0.00P  
04/27/2020 00:30 MDT284P  4.48P  0.00P  
04/27/2020 00:45 MDT289P  4.49P  0.00P  
04/27/2020 01:00 MDT294P  4.50P  0.00P  
04/27/2020 01:15 MDT294P  4.50P  0.00P  
04/27/2020 01:30 MDT289P  4.49P  0.00P  
04/27/2020 01:45 MDT289P  4.49P  0.00P  
04/27/2020 02:00 MDT289P  4.49P  0.00P  
04/27/2020 02:15 MDT289P  4.49P  0.00P  
04/27/2020 02:30 MDT294P  4.50P  0.00P  
04/27/2020 02:45 MDT294P  4.50P  0.00P  
04/27/2020 03:00 MDT284P  4.48P  0.00P  
04/27/2020 03:15 MDT289P  4.49P  0.00P  
04/27/2020 03:30 MDT294P  4.50P  0.00P  
04/27/2020 03:45 MDT289P  4.49P  0.00P  
04/27/2020 04:00 MDT294P  4.50P  0.00P  
04/27/2020 04:15 MDT289P  4.49P  0.00P  
04/27/2020 04:30 MDT289P  4.49P  0.00P  
04/27/2020 04:45 MDT294P  4.50P  0.00P  
04/27/2020 05:00 MDT300P  4.51P  0.00P  
04/27/2020 05:15 MDT300P  4.51P  0.00P  
04/27/2020 05:30 MDT305P  4.52P  0.00P  
04/27/2020 05:45 MDT305P  4.52P  0.00P  
04/27/2020 06:00 MDT310P  4.53P  0.00P  
04/27/2020 06:15 MDT310P  4.53P  0.00P  
04/27/2020 06:30 MDT315P  4.54P  0.00P  
04/27/2020 06:45 MDT321P  4.55P  0.00P  
04/27/2020 07:00 MDT321P  4.55P  0.00P  
04/27/2020 07:15 MDT321P  4.55P  0.00P  
04/27/2020 07:30 MDT321P  4.55P  0.00P  
04/27/2020 07:45 MDT326P  4.56P  0.00P  
04/27/2020 08:00 MDT332P  4.57P  0.00P  
04/27/2020 08:15 MDT332P  4.57P  0.00P  
04/27/2020 08:30 MDT332P  4.57P  0.00P  
04/27/2020 08:45 MDT343P  4.59P  0.00P  
04/27/2020 09:00 MDT343P  4.59P  0.00P  
04/27/2020 09:15 MDT337P  4.58P  0.00P  
04/27/2020 09:30 MDT348P  4.60P  0.00P  
04/27/2020 09:45 MDT348P  4.60P  0.00P  
04/27/2020 10:00 MDT343P  4.59P  0.00P  
04/27/2020 10:15 MDT348P  4.60P  0.00P  
04/27/2020 10:30 MDT354P  4.61P  0.00P  
04/27/2020 10:45 MDT354P  4.61P  0.00P  
04/27/2020 11:00 MDT354P  4.61P  0.00P  
04/27/2020 11:15 MDT348P  4.60P  0.00P  
04/27/2020 11:30 MDT348P  4.60P  0.00P  
04/27/2020 11:45 MDT348P  4.60P  0.00P  
04/27/2020 12:00 MDT348P  4.60P  0.00P  
04/27/2020 12:15 MDT348P  4.60P  0.00P  
04/27/2020 12:30 MDT343P  4.59P  0.00P  
04/27/2020 12:45 MDT354P  4.61P  0.00P  
04/27/2020 13:00 MDT348P  4.60P  0.00P  
04/27/2020 13:15 MDT354P  4.61P  0.00P  
04/27/2020 13:30 MDT343P  4.59P  0.00P  
04/27/2020 13:45 MDT348P  4.60P  0.00P  
04/27/2020 14:00 MDT343P  4.59P  0.00P  
04/27/2020 14:15 MDT343P  4.59P  0.00P  
04/27/2020 14:30 MDT343P  4.59P  0.00P  
04/27/2020 14:45 MDT343P  4.59P  0.00P  
04/27/2020 15:00 MDT343P  4.59P  0.00P  
04/27/2020 15:15 MDT343P  4.59P  0.00P  
04/27/2020 15:30 MDT337P  4.58P  0.00P  
04/27/2020 15:45 MDT337P  4.58P  0.00P  
04/27/2020 16:00 MDT337P  4.58P  0.00P  
04/27/2020 16:15 MDT337P  4.58P  0.00P  
04/27/2020 16:30 MDT343P  4.59P  0.00P  
04/27/2020 16:45 MDT337P  4.58P  0.00P  
04/27/2020 17:00 MDT337P  4.58P  0.00P  
04/27/2020 17:15 MDT343P  4.59P  0.00P  
04/27/2020 17:30 MDT343P  4.59P  0.00P  
04/27/2020 17:45 MDT337P  4.58P  0.00P  
04/27/2020 18:00 MDT332P  4.57P  0.00P  
04/27/2020 18:15 MDT332P  4.57P  0.00P  
04/27/2020 18:30 MDT337P  4.58P  0.00P  
04/27/2020 18:45 MDT332P  4.57P  0.00P  
04/27/2020 19:00 MDT337P  4.58P  0.00P  
04/27/2020 19:15 MDT332P  4.57P  0.00P  
04/27/2020 19:30 MDT332P  4.57P  0.00P  
04/27/2020 19:45 MDT332P  4.57P  0.00P  
04/27/2020 20:00 MDT332P  4.57P  0.00P  
04/27/2020 20:15 MDT332P  4.57P  0.00P  
04/27/2020 20:30 MDT332P  4.57P  0.00P  
04/27/2020 20:45 MDT332P  4.57P  0.00P  
04/27/2020 21:00 MDT332P  4.57P  0.00P  
04/27/2020 21:15 MDT326P  4.56P  0.00P  
04/27/2020 21:30 MDT332P  4.57P  0.00P  
04/27/2020 21:45 MDT321P  4.55P  0.00P  
04/27/2020 22:00 MDT321P  4.55P  0.00P  
04/27/2020 22:15 MDT326P  4.56P  0.00P  
04/27/2020 22:30 MDT326P  4.56P  0.00P  
04/27/2020 22:45 MDT326P  4.56P  0.00P  
04/27/2020 23:00 MDT326P  4.56P  0.00P  
04/27/2020 23:15 MDT326P  4.56P  0.00P  
04/27/2020 23:30 MDT321P  4.55P  0.00P  
04/27/2020 23:45 MDT327P  4.56P  0.00P  
04/28/2020 00:00 MDT327P  4.56P  0.00P  
04/28/2020 00:15 MDT327P  4.56P  0.00P  
04/28/2020 00:30 MDT327P  4.56P  0.00P  
04/28/2020 00:45 MDT321P  4.55P  0.00P  
04/28/2020 01:00 MDT321P  4.55P  0.00P  
04/28/2020 01:15 MDT327P  4.56P  0.00P  
04/28/2020 01:30 MDT332P  4.57P  0.00P  
04/28/2020 01:45 MDT321P  4.55P  0.00P  
04/28/2020 02:00 MDT327P  4.56P  0.00P  
04/28/2020 02:15 MDT332P  4.57P  0.00P  
04/28/2020 02:30 MDT332P  4.57P  0.00P  
04/28/2020 02:45 MDT332P  4.57P  0.00P  
04/28/2020 03:00 MDT332P  4.57P  0.00P  
04/28/2020 03:15 MDT332P  4.57P  0.00P  
04/28/2020 03:30 MDT332P  4.57P  0.00P  
04/28/2020 03:45 MDT338P  4.58P  0.00P  
04/28/2020 04:00 MDT343P  4.59P  0.00P  
04/28/2020 04:15 MDT349P  4.60P  0.00P  
04/28/2020 04:30 MDT349P  4.60P  0.00P  
04/28/2020 04:45 MDT349P  4.60P  0.00P  
04/28/2020 05:00 MDT355P  4.61P  0.00P  
04/28/2020 05:15 MDT360P  4.62P  0.00P  
04/28/2020 05:30 MDT366P  4.63P  0.00P  
04/28/2020 05:45 MDT366P  4.63P  0.00P  
04/28/2020 06:00 MDT372P  4.64P  0.00P  
04/28/2020 06:15 MDT372P  4.64P  0.00P  
04/28/2020 06:30 MDT384P  4.66P  0.00P  
04/28/2020 06:45 MDT384P  4.66P  0.00P  
04/28/2020 07:00 MDT390P  4.67P  0.00P  
04/28/2020 07:15 MDT396P  4.68P  0.00P  
04/28/2020 07:30 MDT402P  4.69P  0.00P  
04/28/2020 07:45 MDT402P  4.69P  0.00P  
04/28/2020 08:00 MDT408P  4.70P  0.00P  
04/28/2020 08:15 MDT414P  4.71P  0.00P  
04/28/2020 08:30 MDT414P  4.71P  0.00P  
04/28/2020 08:45 MDT414P  4.71P  0.00P  
04/28/2020 09:00 MDT427P  4.73P  0.00P  
04/28/2020 09:15 MDT427P  4.73P  0.00P  
04/28/2020 09:30 MDT427P  4.73P  0.00P  
04/28/2020 09:45 MDT433P  4.74P  0.00P  
04/28/2020 10:00 MDT439P  4.75P  0.00P  
04/28/2020 10:15 MDT433P  4.74P  0.00P  
04/28/2020 10:30 MDT439P  4.75P  0.00P  
04/28/2020 10:45 MDT439P  4.75P  0.00P  
04/28/2020 11:00 MDT439P  4.75P  0.00P  
04/28/2020 11:15 MDT446P  4.76P  0.00P  
04/28/2020 11:30 MDT446P  4.76P  0.00P  
04/28/2020 11:45 MDT433P  4.74P  0.00P  
04/28/2020 12:00 MDT439P  4.75P  0.00P  
04/28/2020 12:15 MDT440P  4.75P  0.00P  
04/28/2020 12:30 MDT446P  4.76P  0.00P  
04/28/2020 12:45 MDT446P  4.76P  0.00P  
04/28/2020 13:00 MDT446P  4.76P  0.00P  
04/28/2020 13:15 MDT440P  4.75P  0.00P  
04/28/2020 13:30 MDT446P  4.76P  0.00P  
04/28/2020 13:45 MDT446P  4.76P  0.00P  
04/28/2020 14:00 MDT446P  4.76P  0.00P  
04/28/2020 14:15 MDT446P  4.76P  0.00P  
04/28/2020 14:30 MDT440P  4.75P  0.00P  
04/28/2020 14:45 MDT446P  4.76P  0.00P  
04/28/2020 15:00 MDT446P  4.76P  0.00P  
04/28/2020 15:15 MDT433P  4.74P  0.00P  
04/28/2020 15:30 MDT440P  4.75P  0.00P  
04/28/2020 15:45 MDT440P  4.75P  0.00P  
04/28/2020 16:00 MDT446P  4.76P  0.00P  
04/28/2020 16:15 MDT440P  4.75P  0.00P  
04/28/2020 16:30 MDT440P  4.75P  0.00P  
04/28/2020 16:45 MDT427P  4.73P  0.00P  
04/28/2020 17:00 MDT434P  4.74P  0.00P  
04/28/2020 17:15 MDT440P  4.75P  0.00P  
04/28/2020 17:30 MDT440P  4.75P  0.00P  
04/28/2020 17:45 MDT434P  4.74P  0.00P  
04/28/2020 18:00 MDT440P  4.75P  0.00P  
04/28/2020 18:15 MDT434P  4.74P  0.00P  
04/28/2020 18:30 MDT427P  4.73P  0.00P  
04/28/2020 18:45 MDT434P  4.74P  0.00P  
04/28/2020 19:00 MDT440P  4.75P  0.00P  
04/28/2020 19:15 MDT434P  4.74P  0.00P  
04/28/2020 19:30 MDT434P  4.74P  0.00P  
04/28/2020 19:45 MDT440P  4.75P  0.00P  
04/28/2020 20:00 MDT427P  4.73P  0.00P  
04/28/2020 20:15 MDT434P  4.74P  0.00P  
04/28/2020 20:30 MDT428P  4.73P  0.00P  
04/28/2020 20:45 MDT428P  4.73P  0.00P  
04/28/2020 21:00 MDT434P  4.74P  0.00P  
04/28/2020 21:15 MDT428P  4.73P  0.00P  
04/28/2020 21:30 MDT428P  4.73P  0.00P  
04/28/2020 21:45 MDT434P  4.74P  0.00P  
04/28/2020 22:00 MDT428P  4.73P  0.00P  
04/28/2020 22:15 MDT428P  4.73P  0.00P  
04/28/2020 22:30 MDT434P  4.74P  0.00P  
04/28/2020 22:45 MDT428P  4.73P  0.00P  
04/28/2020 23:00 MDT434P  4.74P  0.00P  
04/28/2020 23:15 MDT428P  4.73P  0.00P  
04/28/2020 23:30 MDT428P  4.73P  0.00P  
04/28/2020 23:45 MDT434P  4.74P  0.00P  
04/29/2020 00:00 MDT434P  4.74P  0.00P  
04/29/2020 00:15 MDT434P  4.74P  0.00P  
04/29/2020 00:30 MDT434P  4.74P  0.00P  
04/29/2020 00:45 MDT434P  4.74P  0.00P  
04/29/2020 01:00 MDT441P  4.75P  0.00P  
04/29/2020 01:15 MDT441P  4.75P  0.00P  
04/29/2020 01:30 MDT447P  4.76P  0.00P  
04/29/2020 01:45 MDT454P  4.77P  0.00P  
04/29/2020 02:00 MDT447P  4.76P  0.00P  
04/29/2020 02:15 MDT454P  4.77P  0.00P  
04/29/2020 02:30 MDT460P  4.78P  0.00P  
04/29/2020 02:45 MDT460P  4.78P  0.00P  
04/29/2020 03:00 MDT473P  4.80P  0.00P  
04/29/2020 03:15 MDT473P  4.80P  0.00P  
04/29/2020 03:30 MDT480P  4.81P  0.00P  
04/29/2020 03:45 MDT487P  4.82P  0.00P  
04/29/2020 04:00 MDT507P  4.85P  0.00P  
04/29/2020 04:15 MDT500P  4.84P  0.00P  
04/29/2020 04:30 MDT514P  4.86P  0.00P  
04/29/2020 04:45 MDT514P  4.86P  0.00P  
04/29/2020 05:00 MDT521P  4.87P  0.00P  
04/29/2020 05:15 MDT514P  4.86P  0.00P  
04/29/2020 05:30 MDT528P  4.88P  0.00P  
04/29/2020 05:45 MDT542P  4.90P  0.00P  
04/29/2020 06:00 MDT564P  4.93P  0.00P  
04/29/2020 06:15 MDT571P  4.94P  0.00P  
04/29/2020 06:30 MDT571P  4.94P  0.00P  
04/29/2020 06:45 MDT578P  4.95P  0.00P  
04/29/2020 07:00 MDT578P  4.95P  0.00P  
04/29/2020 07:15 MDT571P  4.94P  0.00P  
04/29/2020 07:30 MDT586P  4.96P  0.00P  
04/29/2020 07:45 MDT586P  4.96P  0.00P  
04/29/2020 08:00 MDT593P  4.97P  0.00P  
04/29/2020 08:15 MDT601P  4.98P  0.00P  
04/29/2020 08:30 MDT601P  4.98P  0.00P  
04/29/2020 08:45 MDT601P  4.98P  0.00P  
04/29/2020 09:00 MDT601P  4.98P  0.00P  
04/29/2020 09:15 MDT608P  4.99P  0.00P  
04/29/2020 09:30 MDT608P  4.99P  0.00P  
04/29/2020 09:45 MDT609P  4.99P  0.00P  
04/29/2020 10:00 MDT609P  4.99P  0.00P  
04/29/2020 10:15 MDT609P  4.99P  0.00P  
04/29/2020 10:30 MDT609P  4.99P  0.00P  
04/29/2020 10:45 MDT601P  4.98P  0.00P  
04/29/2020 11:00 MDT594P  4.97P  0.00P  
04/29/2020 11:15 MDT594P  4.97P  0.00P  
04/29/2020 11:30 MDT587P  4.96P  0.00P  
04/29/2020 11:45 MDT601P  4.98P  0.00P  
04/29/2020 12:00 MDT601P  4.98P  0.00P  
04/29/2020 12:15 MDT594P  4.97P  0.00P  
04/29/2020 12:30 MDT587P  4.96P  0.00P  
04/29/2020 12:45 MDT587P  4.96P  0.00P  
04/29/2020 13:00 MDT587P  4.96P  0.00P  
04/29/2020 13:15 MDT579P  4.95P  0.00P  
04/29/2020 13:30 MDT580P  4.95P  0.00P  
04/29/2020 13:45 MDT572P  4.94P  0.00P  
04/29/2020 14:00 MDT572P  4.94P  0.00P  
04/29/2020 14:15 MDT580P  4.95P  0.00P  
04/29/2020 14:30 MDT558P  4.92P  0.00P  
04/29/2020 14:45 MDT565P  4.93P  0.00P  
04/29/2020 15:00 MDT565P  4.93P  0.00P  
04/29/2020 15:15 MDT565P  4.93P  0.00P  
04/29/2020 15:30 MDT565P  4.93P  0.00P  
04/29/2020 15:45 MDT565P  4.93P  0.00P  
04/29/2020 16:00 MDT551P  4.91P  0.00P  
04/29/2020 16:15 MDT558P  4.92P  0.00P  
04/29/2020 16:30 MDT551P  4.91P  0.00P  
04/29/2020 16:45 MDT558P  4.92P  0.00P  
04/29/2020 17:00 MDT544P  4.90P  0.00P  
04/29/2020 17:15 MDT551P  4.91P  0.00P  
04/29/2020 17:30 MDT544P  4.90P  0.00P  
04/29/2020 17:45 MDT544P  4.90P  0.00P  
04/29/2020 18:00 MDT544P  4.90P  0.00P  
04/29/2020 18:15 MDT544P  4.90P  0.00P  
04/29/2020 18:30 MDT544P  4.90P  0.00P  
04/29/2020 18:45 MDT537P  4.89P  0.00P  
04/29/2020 19:00 MDT537P  4.89P  0.00P  
04/29/2020 19:15 MDT523P  4.87P  0.00P  
04/29/2020 19:30 MDT537P  4.89P  0.00P  
04/29/2020 19:45 MDT537P  4.89P  0.00P  
04/29/2020 20:00 MDT537P  4.89P  0.00P  
04/29/2020 20:15 MDT530P  4.88P  0.00P  
04/29/2020 20:30 MDT537P  4.89P  0.00P  
04/29/2020 20:45 MDT537P  4.89P  0.00P  
04/29/2020 21:00 MDT537P  4.89P  0.00P  
04/29/2020 21:15 MDT530P  4.88P  0.00P  
04/29/2020 21:30 MDT537P  4.89P  0.00P  
04/29/2020 21:45 MDT530P  4.88P  0.00P  
04/29/2020 22:00 MDT530P  4.88P  0.00P  
04/29/2020 22:15 MDT530P  4.88P  0.00P  
04/29/2020 22:30 MDT523P  4.87P  0.00P  
04/29/2020 22:45 MDT523P  4.87P  0.00P  
04/29/2020 23:00 MDT531P  4.88P  0.00P  
04/29/2020 23:15 MDT538P  4.89P  0.00P  
04/29/2020 23:30 MDT538P  4.89P  0.00P  
04/29/2020 23:45 MDT538P  4.89P  0.00P  
04/30/2020 00:00 MDT538P  4.89P  0.00P  
04/30/2020 00:15 MDT538P  4.89P  0.00P  
04/30/2020 00:30 MDT545P  4.90P  0.00P  
04/30/2020 00:45 MDT538P  4.89P  0.00P  
04/30/2020 01:00 MDT552P  4.91P  0.00P  
04/30/2020 01:15 MDT545P  4.90P  0.00P  
04/30/2020 01:30 MDT560P  4.92P  0.00P  
04/30/2020 01:45 MDT552P  4.91P  0.00P  
04/30/2020 02:00 MDT567P  4.93P  0.00P  
04/30/2020 02:15 MDT567P  4.93P  0.00P  
04/30/2020 02:30 MDT567P  4.93P  0.00P  
04/30/2020 02:45 MDT574P  4.94P  0.00P  
04/30/2020 03:00 MDT589P  4.96P  0.00P  
04/30/2020 03:15 MDT582P  4.95P  0.00P  
04/30/2020 03:30 MDT597P  4.97P  0.00P  
04/30/2020 03:45 MDT612P  4.99P  0.00P  
04/30/2020 04:00 MDT612P  4.99P  0.00P  
04/30/2020 04:15 MDT612P  4.99P  0.00P  
04/30/2020 04:30 MDT620P  5.00P  0.00P  
04/30/2020 04:45 MDT627P  5.01P  0.00P  
04/30/2020 05:00 MDT635P  5.02P  0.00P  
04/30/2020 05:15 MDT635P  5.02P  0.00P  
04/30/2020 05:30 MDT651P  5.04P  0.00P  
04/30/2020 05:45 MDT651P  5.04P  0.00P  
04/30/2020 06:00 MDT651P  5.04P  0.00P  
04/30/2020 06:15 MDT667P  5.06P  0.00P  
04/30/2020 06:30 MDT667P  5.06P  0.00P  
04/30/2020 06:45 MDT675P  5.07P  0.00P  
04/30/2020 07:00 MDT675P  5.07P  0.00P  
04/30/2020 07:15 MDT691P  5.09P  0.00P  
04/30/2020 07:30 MDT683P  5.08P  0.00P  
04/30/2020 07:45 MDT691P  5.09P  0.00P  
04/30/2020 08:00 MDT691P  5.09P  0.00P  
04/30/2020 08:15 MDT691P  5.09P  0.00P  
04/30/2020 08:30 MDT691P  5.09P  0.00P  
04/30/2020 08:45 MDT691P  5.09P  0.00P  
04/30/2020 09:00 MDT691P  5.09P  0.00P  
04/30/2020 09:15 MDT699P  5.10P  0.00P  
04/30/2020 09:30 MDT691P  5.09P  0.00P  
04/30/2020 09:45 MDT700P  5.10P  0.00P  
04/30/2020 10:00 MDT700P  5.10P  0.00P  
04/30/2020 10:15 MDT700P  5.10P  0.00P  
04/30/2020 10:30 MDT708P  5.11P  0.00P  
04/30/2020 10:45 MDT692P  5.09P  0.00P  
04/30/2020 11:00 MDT684P  5.08P  0.00P  
04/30/2020 11:15 MDT692P  5.09P  0.00P  
04/30/2020 11:30 MDT700P  5.10P  0.00P  
04/30/2020 11:45 MDT700P  5.10P  0.00P  
04/30/2020 12:00 MDT692P  5.09P  0.00P  
04/30/2020 12:15 MDT692P  5.09P  0.00P  
04/30/2020 12:30 MDT692P  5.09P  0.00P  
04/30/2020 12:45 MDT684P  5.08P  0.00P  
04/30/2020 13:00 MDT684P  5.08P  0.00P  
04/30/2020 13:15 MDT692P  5.09P  0.00P  
04/30/2020 13:30 MDT692P  5.09P  0.00P  
04/30/2020 13:45 MDT693P  5.09P  0.00P  
04/30/2020 14:00 MDT685P  5.08P  0.00P  
04/30/2020 14:15 MDT677P  5.07P  0.00P  
04/30/2020 14:30 MDT669P  5.06P  0.00P  
04/30/2020 14:45 MDT669P  5.06P  0.00P  
04/30/2020 15:00 MDT677P  5.07P  0.00P  
04/30/2020 15:15 MDT669P  5.06P  0.00P  
04/30/2020 15:30 MDT661P  5.05P  0.00P  
04/30/2020 15:45 MDT661P  5.05P  0.00P  
04/30/2020 16:00 MDT669P  5.06P  0.00P  
04/30/2020 16:15 MDT661P  5.05P  0.00P  
04/30/2020 16:30 MDT653P  5.04P  0.00P  
04/30/2020 16:45 MDT661P  5.05P  0.00P  
04/30/2020 17:00 MDT661P  5.05P  0.00P  
04/30/2020 17:15 MDT646P  5.03P  0.00P  
04/30/2020 17:30 MDT653P  5.04P  0.00P  
04/30/2020 17:45 MDT638P  5.02P  0.00P  
04/30/2020 18:00 MDT646P  5.03P  0.00P  
04/30/2020 18:15 MDT646P  5.03P  0.00P  
04/30/2020 18:30 MDT638P  5.02P  0.00P  
04/30/2020 18:45 MDT646P  5.03P  0.00P  
04/30/2020 19:00 MDT646P  5.03P  0.00P  
04/30/2020 19:15 MDT638P  5.02P  0.00P  
04/30/2020 19:30 MDT646P  5.03P  0.00P  
04/30/2020 19:45 MDT630P  5.01P  0.00P  
04/30/2020 20:00 MDT623P  5.00P  0.00P  
04/30/2020 20:15 MDT631P  5.01P  0.00P  
04/30/2020 20:30 MDT638P  5.02P  0.00P  
04/30/2020 20:45 MDT631P  5.01P  0.00P  
04/30/2020 21:00 MDT639P  5.02P  0.00P  
04/30/2020 21:15 MDT631P  5.01P  0.00P  
04/30/2020 21:30 MDT631P  5.01P  0.00P  
04/30/2020 21:45 MDT623P  5.00P  0.00P  
04/30/2020 22:00 MDT631P  5.01P  0.00P  
04/30/2020 22:15 MDT623P  5.00P  0.00P  
04/30/2020 22:30 MDT631P  5.01P  0.00P  
04/30/2020 22:45 MDT623P  5.00P  0.00P  
04/30/2020 23:00 MDT623P  5.00P  0.00P  
04/30/2020 23:15 MDT639P  5.02P  0.00P  
04/30/2020 23:30 MDT639P  5.02P  0.00P  
04/30/2020 23:45 MDT631P  5.01P  0.00P  

Explanation
  P  Provisional data subject to revision.